Wetterdaten: Sonntag, 22.03.2015
Datum Zeit Temp. Aussen +5cm Feuchte Auss Luftdruck Regen Sonnenschein Regendauer Solar Windben
22.03.2015 00:00 5,1 C 3,9 C 95 % 1021,4 hPa 0,0 l/m 0 min 0 min 0 W/m 18,8 km/h (3 Bft)
22.03.2015 00:02 5,1 C 3,9 C 95 % 1021,4 hPa 0,0 l/m 0 min 0 min 0 W/m 20,9 km/h (4 Bft)
22.03.2015 00:06 5,1 C 3,9 C 95 % 1021,4 hPa 0,0 l/m 0 min 0 min 0 W/m 27,2 km/h (4 Bft)
22.03.2015 00:08 5,1 C 3,9 C 95 % 1021,5 hPa 0,0 l/m 0 min 0 min 0 W/m 23,0 km/h (4 Bft)
22.03.2015 00:10 5,1 C 3,9 C 95 % 1021,5 hPa 0,0 l/m 0 min 0 min 0 W/m 23,0 km/h (4 Bft)
22.03.2015 00:12 5,1 C 3,9 C 95 % 1021,5 hPa 0,0 l/m 0 min 0 min 0 W/m 23,0 km/h (4 Bft)
22.03.2015 00:14 5,1 C 3,9 C 95 % 1021,5 hPa 0,0 l/m 0 min 0 min 0 W/m 12,6 km/h (3 Bft)
22.03.2015 00:16 5,1 C 3,9 C 95 % 1021,5 hPa 0,0 l/m 0 min 0 min 0 W/m 20,9 km/h (4 Bft)
22.03.2015 00:18 5,1 C 3,9 C 95 % 1021,5 hPa 0,0 l/m 0 min 0 min 0 W/m 20,9 km/h (4 Bft)
22.03.2015 00:20 5,1 C 3,9 C 95 % 1021,6 hPa 0,0 l/m 0 min 0 min 0 W/m 25,1 km/h (4 Bft)
22.03.2015 00:22 5,1 C 3,9 C 95 % 1021,6 hPa 0,0 l/m 0 min 0 min 0 W/m 23,0 km/h (4 Bft)
22.03.2015 00:24 5,1 C 3,9 C 95 % 1021,7 hPa 0,0 l/m 0 min 0 min 0 W/m 20,9 km/h (4 Bft)
22.03.2015 00:26 5,1 C 3,9 C 95 % 1021,7 hPa 0,0 l/m 0 min 0 min 0 W/m 16,7 km/h (3 Bft)
22.03.2015 00:28 5,1 C 3,9 C 95 % 1021,7 hPa 0,0 l/m 0 min 0 min 0 W/m 14,6 km/h (3 Bft)
22.03.2015 00:30 5,1 C 3,9 C 95 % 1021,7 hPa 0,0 l/m 0 min 0 min 0 W/m 20,9 km/h (4 Bft)
22.03.2015 00:32 5,1 C 3,9 C 95 % 1021,7 hPa 0,0 l/m 0 min 0 min 0 W/m 18,8 km/h (3 Bft)
22.03.2015 00:34 5,1 C 3,9 C 95 % 1021,8 hPa 0,0 l/m 0 min 0 min 0 W/m 16,7 km/h (3 Bft)
22.03.2015 00:36 5,1 C 3,9 C 95 % 1021,8 hPa 0,0 l/m 0 min 0 min 0 W/m 14,6 km/h (3 Bft)
22.03.2015 00:38 5,1 C 3,9 C 95 % 1021,9 hPa 0,0 l/m 0 min 0 min 0 W/m 18,8 km/h (3 Bft)
22.03.2015 00:40 5,1 C 3,9 C 95 % 1021,9 hPa 0,0 l/m 0 min 0 min 0 W/m 16,7 km/h (3 Bft)
22.03.2015 00:42 5,1 C 3,9 C 95 % 1021,9 hPa 0,0 l/m 0 min 0 min 0 W/m 16,7 km/h (3 Bft)
22.03.2015 00:44 5,1 C 3,9 C 95 % 1021,9 hPa 0,0 l/m 0 min 0 min 0 W/m 18,8 km/h (3 Bft)
22.03.2015 00:46 5,1 C 3,9 C 95 % 1021,9 hPa 0,0 l/m 0 min 0 min 0 W/m 18,8 km/h (3 Bft)
22.03.2015 00:48 5,1 C 3,9 C 95 % 1021,9 hPa 0,0 l/m 0 min 0 min 0 W/m 18,8 km/h (3 Bft)
22.03.2015 00:50 5,1 C 3,9 C 95 % 1021,9 hPa 0,0 l/m 0 min 0 min 0 W/m 23,0 km/h (4 Bft)
22.03.2015 00:52 5,1 C 3,9 C 95 % 1021,9 hPa 0,0 l/m 0 min 0 min 0 W/m 16,7 km/h (3 Bft)
22.03.2015 00:54 5,1 C 3,9 C 95 % 1022,0 hPa 0,0 l/m 0 min 0 min 0 W/m 23,0 km/h (4 Bft)
22.03.2015 00:56 5,1 C 3,9 C 95 % 1021,9 hPa 0,0 l/m 0 min 0 min 0 W/m 23,0 km/h (4 Bft)
22.03.2015 00:58 5,1 C 3,9 C 95 % 1021,9 hPa 0,0 l/m 0 min 0 min 0 W/m 25,1 km/h (4 Bft)
22.03.2015 01:00 5,1 C 3,3 C 95 % 1022,0 hPa 0,0 l/m 0 min 0 min 0 W/m 25,1 km/h (4 Bft)
22.03.2015 01:02 5,1 C 3,3 C 95 % 1022,0 hPa 0,0 l/m 0 min 0 min 0 W/m 25,1 km/h (4 Bft)
22.03.2015 01:04 5,1 C 3,3 C 95 % 1022,0 hPa 0,0 l/m 0 min 0 min 0 W/m 23,0 km/h (4 Bft)
22.03.2015 01:06 5,1 C 3,3 C 95 % 1022,0 hPa 0,0 l/m 0 min 0 min 0 W/m 23,0 km/h (4 Bft)
22.03.2015 01:08 5,1 C 3,3 C 95 % 1022,0 hPa 0,0 l/m 0 min 0 min 0 W/m 18,8 km/h (3 Bft)
22.03.2015 01:10 5,1 C 3,3 C 95 % 1022,0 hPa 0,0 l/m 0 min 0 min 0 W/m 18,8 km/h (3 Bft)
22.03.2015 01:12 5,1 C 3,3 C 95 % 1022,1 hPa 0,0 l/m 0 min 0 min 0 W/m 16,7 km/h (3 Bft)
22.03.2015 01:14 5,1 C 3,3 C 95 % 1022,1 hPa 0,0 l/m 0 min 0 min 0 W/m 14,6 km/h (3 Bft)
22.03.2015 01:16 5,1 C 3,3 C 95 % 1022,1 hPa 0,0 l/m 0 min 0 min 0 W/m 18,8 km/h (3 Bft)
22.03.2015 01:18 5,1 C 3,3 C 95 % 1022,1 hPa 0,0 l/m 0 min 0 min 0 W/m 18,8 km/h (3 Bft)
22.03.2015 01:20 5,0 C 3,3 C 95 % 1022,1 hPa 0,0 l/m 0 min 0 min 0 W/m 20,9 km/h (4 Bft)
22.03.2015 01:22 5,1 C 3,3 C 95 % 1022,1 hPa 0,0 l/m 0 min 0 min 0 W/m 18,8 km/h (3 Bft)
22.03.2015 01:24 5,0 C 3,3 C 95 % 1022,1 hPa 0,0 l/m 0 min 0 min 0 W/m 25,1 km/h (4 Bft)
22.03.2015 01:26 5,0 C 3,3 C 95 % 1022,1 hPa 0,0 l/m 0 min 0 min 0 W/m 23,0 km/h (4 Bft)
22.03.2015 01:28 5,0 C 3,3 C 95 % 1022,1 hPa 0,0 l/m 0 min 0 min 0 W/m 20,9 km/h (4 Bft)
22.03.2015 01:30 5,0 C 3,3 C 95 % 1022,1 hPa 0,0 l/m 0 min 0 min 0 W/m 18,8 km/h (3 Bft)
22.03.2015 01:32 5,0 C 3,3 C 95 % 1022,1 hPa 0,0 l/m 0 min 0 min 0 W/m 20,9 km/h (4 Bft)
22.03.2015 01:34 5,0 C 3,3 C 95 % 1022,2 hPa 0,0 l/m 0 min 0 min 0 W/m 25,1 km/h (4 Bft)
22.03.2015 01:36 5,0 C 3,3 C 95 % 1022,1 hPa 0,0 l/m 0 min 0 min 0 W/m 31,4 km/h (5 Bft)
22.03.2015 01:38 5,0 C 3,3 C 95 % 1022,1 hPa 0,0 l/m 0 min 0 min 0 W/m 27,2 km/h (4 Bft)
22.03.2015 01:40 5,0 C 3,3 C 95 % 1022,2 hPa 0,0 l/m 0 min 0 min 0 W/m 23,0 km/h (4 Bft)
22.03.2015 01:42 5,0 C 3,3 C 95 % 1022,1 hPa 0,0 l/m 0 min 0 min 0 W/m 23,0 km/h (4 Bft)
22.03.2015 01:44 5,0 C 3,3 C 95 % 1022,1 hPa 0,0 l/m 0 min 0 min 0 W/m 20,9 km/h (4 Bft)
22.03.2015 01:46 5,0 C 3,3 C 95 % 1022,1 hPa 0,0 l/m 0 min 0 min 0 W/m 18,8 km/h (3 Bft)
22.03.2015 01:48 5,0 C 3,3 C 95 % 1022,1 hPa 0,0 l/m 0 min 0 min 0 W/m 29,3 km/h (5 Bft)
22.03.2015 01:50 4,9 C 3,3 C 95 % 1022,1 hPa 0,0 l/m 0 min 0 min 0 W/m 25,1 km/h (4 Bft)
22.03.2015 01:52 5,0 C 3,3 C 95 % 1022,2 hPa 0,0 l/m 0 min 0 min 0 W/m 20,9 km/h (4 Bft)
22.03.2015 01:54 4,9 C 3,3 C 95 % 1022,2 hPa 0,0 l/m 0 min 0 min 0 W/m 25,1 km/h (4 Bft)
22.03.2015 01:56 4,9 C 3,3 C 95 % 1022,1 hPa 0,0 l/m 0 min 0 min 0 W/m 20,9 km/h (4 Bft)
22.03.2015 01:58 4,9 C 3,3 C 95 % 1022,2 hPa 0,0 l/m 0 min 0 min 0 W/m 18,8 km/h (3 Bft)
22.03.2015 02:00 4,9 C 3,3 C 95 % 1022,3 hPa 0,0 l/m 0 min 0 min 0 W/m 20,9 km/h (4 Bft)
22.03.2015 02:02 4,9 C 3,3 C 95 % 1022,2 hPa 0,0 l/m 0 min 0 min 0 W/m 23,0 km/h (4 Bft)
22.03.2015 02:04 4,9 C 3,3 C 95 % 1022,2 hPa 0,0 l/m 0 min 0 min 0 W/m 25,1 km/h (4 Bft)
22.03.2015 02:06 4,9 C 3,3 C 95 % 1022,2 hPa 0,0 l/m 0 min 0 min 0 W/m 20,9 km/h (4 Bft)
22.03.2015 02:08 4,9 C 3,3 C 95 % 1022,3 hPa 0,0 l/m 0 min 0 min 0 W/m 16,7 km/h (3 Bft)
22.03.2015 02:10 4,9 C 3,3 C 95 % 1022,3 hPa 0,0 l/m 0 min 0 min 0 W/m 20,9 km/h (4 Bft)
22.03.2015 02:12 4,9 C 3,3 C 95 % 1022,3 hPa 0,0 l/m 0 min 0 min 0 W/m 29,3 km/h (5 Bft)
22.03.2015 02:14 4,9 C 3,3 C 95 % 1022,4 hPa 0,0 l/m 0 min 0 min 0 W/m 33,5 km/h (5 Bft)
22.03.2015 02:16 4,9 C 3,3 C 94 % 1022,4 hPa 0,0 l/m 0 min 0 min 0 W/m 27,2 km/h (4 Bft)
22.03.2015 02:18 4,9 C 3,3 C 94 % 1022,4 hPa 0,0 l/m 0 min 0 min 0 W/m 16,7 km/h (3 Bft)
22.03.2015 02:20 4,9 C 3,3 C 94 % 1022,5 hPa 0,0 l/m 0 min 0 min 0 W/m 25,1 km/h (4 Bft)
22.03.2015 02:22 4,9 C 3,3 C 94 % 1022,5 hPa 0,0 l/m 0 min 0 min 0 W/m 20,9 km/h (4 Bft)
22.03.2015 02:24 4,9 C 3,3 C 94 % 1022,5 hPa 0,0 l/m 0 min 0 min 0 W/m 23,0 km/h (4 Bft)
22.03.2015 02:26 4,9 C 3,3 C 94 % 1022,5 hPa 0,0 l/m 0 min 0 min 0 W/m 27,2 km/h (4 Bft)
22.03.2015 02:28 4,8 C 3,3 C 94 % 1022,5 hPa 0,0 l/m 0 min 0 min 0 W/m 27,2 km/h (4 Bft)
22.03.2015 02:30 4,8 C 3,3 C 94 % 1022,5 hPa 0,0 l/m 0 min 0 min 0 W/m 25,1 km/h (4 Bft)
22.03.2015 02:32 4,8 C 3,3 C 94 % 1022,5 hPa 0,0 l/m 0 min 0 min 0 W/m 23,0 km/h (4 Bft)
22.03.2015 02:34 4,8 C 3,3 C 94 % 1022,6 hPa 0,0 l/m 0 min 0 min 0 W/m 14,6 km/h (3 Bft)
22.03.2015 02:36 4,8 C 3,3 C 94 % 1022,6 hPa 0,0 l/m 0 min 0 min 0 W/m 27,2 km/h (4 Bft)
22.03.2015 02:38 4,8 C 3,3 C 94 % 1022,6 hPa 0,0 l/m 0 min 0 min 0 W/m 14,6 km/h (3 Bft)
22.03.2015 02:40 4,8 C 3,3 C 94 % 1022,6 hPa 0,0 l/m 0 min 0 min 0 W/m 16,7 km/h (3 Bft)
22.03.2015 02:42 4,8 C 3,3 C 94 % 1022,5 hPa 0,0 l/m 0 min 0 min 0 W/m 25,1 km/h (4 Bft)
22.03.2015 02:44 4,8 C 3,3 C 94 % 1022,5 hPa 0,0 l/m 0 min 0 min 0 W/m 16,7 km/h (3 Bft)
22.03.2015 02:46 4,8 C 3,3 C 94 % 1022,6 hPa 0,0 l/m 0 min 0 min 0 W/m 20,9 km/h (4 Bft)
22.03.2015 02:48 4,8 C 3,3 C 94 % 1022,6 hPa 0,0 l/m 0 min 0 min 0 W/m 23,0 km/h (4 Bft)
22.03.2015 02:50 4,8 C 3,3 C 94 % 1022,5 hPa 0,0 l/m 0 min 0 min 0 W/m 31,4 km/h (5 Bft)
22.03.2015 02:52 4,7 C 3,3 C 94 % 1022,6 hPa 0,0 l/m 0 min 0 min 0 W/m 27,2 km/h (4 Bft)
22.03.2015 02:54 4,7 C 3,3 C 94 % 1022,6 hPa 0,0 l/m 0 min 0 min 0 W/m 27,2 km/h (4 Bft)
22.03.2015 02:56 4,7 C 3,3 C 94 % 1022,7 hPa 0,0 l/m 0 min 0 min 0 W/m 31,4 km/h (5 Bft)
22.03.2015 02:58 4,7 C 3,3 C 94 % 1022,7 hPa 0,0 l/m 0 min 0 min 0 W/m 18,8 km/h (3 Bft)
22.03.2015 03:00 4,7 C 3,3 C 94 % 1022,7 hPa 0,0 l/m 0 min 0 min 0 W/m 25,1 km/h (4 Bft)
22.03.2015 03:02 4,7 C 3,3 C 94 % 1022,6 hPa 0,0 l/m 0 min 0 min 0 W/m 18,8 km/h (3 Bft)
22.03.2015 03:04 4,7 C 3,3 C 94 % 1022,6 hPa 0,0 l/m 0 min 0 min 0 W/m 16,7 km/h (3 Bft)
22.03.2015 03:06 4,7 C 3,3 C 94 % 1022,7 hPa 0,0 l/m 0 min 0 min 0 W/m 16,7 km/h (3 Bft)
22.03.2015 03:08 4,7 C 3,3 C 94 % 1022,7 hPa 0,0 l/m 0 min 0 min 0 W/m 16,7 km/h (3 Bft)
22.03.2015 03:10 4,7 C 3,3 C 94 % 1022,8 hPa 0,0 l/m 0 min 0 min 0 W/m 20,9 km/h (4 Bft)
22.03.2015 03:12 4,7 C 3,3 C 94 % 1022,8 hPa 0,0 l/m 0 min 0 min 0 W/m 16,7 km/h (3 Bft)
22.03.2015 03:14 4,7 C 3,3 C 94 % 1022,7 hPa 0,0 l/m 0 min 0 min 0 W/m 23,0 km/h (4 Bft)
22.03.2015 03:16 4,7 C 3,3 C 94 % 1022,7 hPa 0,0 l/m 0 min 0 min 0 W/m 27,2 km/h (4 Bft)
22.03.2015 03:18 4,7 C 3,3 C 94 % 1022,7 hPa 0,0 l/m 0 min 0 min 0 W/m 29,3 km/h (5 Bft)
22.03.2015 03:20 4,7 C 3,3 C 94 % 1022,7 hPa 0,0 l/m 0 min 0 min 0 W/m 18,8 km/h (3 Bft)
22.03.2015 03:22 4,7 C 3,3 C 94 % 1022,6 hPa 0,0 l/m 0 min 0 min 0 W/m 20,9 km/h (4 Bft)
22.03.2015 03:24 4,7 C 3,3 C 94 % 1022,7 hPa 0,0 l/m 0 min 0 min 0 W/m 35,6 km/h (5 Bft)
22.03.2015 03:26 4,7 C 3,3 C 93 % 1022,6 hPa 0,0 l/m 0 min 0 min 0 W/m 27,2 km/h (4 Bft)
22.03.2015 03:28 4,7 C 3,3 C 93 % 1022,7 hPa 0,0 l/m 0 min 0 min 0 W/m 27,2 km/h (4 Bft)
22.03.2015 03:30 4,7 C 3,3 C 93 % 1022,7 hPa 0,0 l/m 0 min 0 min 0 W/m 27,2 km/h (4 Bft)
22.03.2015 03:32 4,7 C 3,3 C 93 % 1022,7 hPa 0,0 l/m 0 min 0 min 0 W/m 25,1 km/h (4 Bft)
22.03.2015 03:34 4,7 C 3,3 C 93 % 1022,7 hPa 0,0 l/m 0 min 0 min 0 W/m 33,5 km/h (5 Bft)
22.03.2015 03:36 4,6 C 3,3 C 93 % 1022,7 hPa 0,0 l/m 0 min 0 min 0 W/m 27,2 km/h (4 Bft)
22.03.2015 03:38 4,6 C 3,3 C 93 % 1022,7 hPa 0,0 l/m 0 min 0 min 0 W/m 33,5 km/h (5 Bft)
22.03.2015 03:40 4,6 C 3,3 C 93 % 1022,7 hPa 0,0 l/m 0 min 0 min 0 W/m 29,3 km/h (5 Bft)
22.03.2015 03:42 4,6 C 3,3 C 93 % 1022,7 hPa 0,0 l/m 0 min 0 min 0 W/m 23,0 km/h (4 Bft)
22.03.2015 03:44 4,6 C 3,3 C 93 % 1022,7 hPa 0,0 l/m 0 min 0 min 0 W/m 23,0 km/h (4 Bft)
22.03.2015 03:46 4,6 C 3,3 C 93 % 1022,7 hPa 0,0 l/m 0 min 0 min 0 W/m 41,8 km/h (6 Bft)
22.03.2015 03:48 4,6 C 3,3 C 92 % 1022,7 hPa 0,0 l/m 0 min 0 min 0 W/m 25,1 km/h (4 Bft)
22.03.2015 03:50 4,6 C 3,3 C 92 % 1022,7 hPa 0,0 l/m 0 min 0 min 0 W/m 20,9 km/h (4 Bft)
22.03.2015 03:52 4,6 C 3,3 C 92 % 1022,7 hPa 0,0 l/m 0 min 0 min 0 W/m 33,5 km/h (5 Bft)
22.03.2015 03:54 4,6 C 3,3 C 92 % 1022,7 hPa 0,0 l/m 0 min 0 min 0 W/m 33,5 km/h (5 Bft)
22.03.2015 03:56 4,6 C 3,3 C 92 % 1022,7 hPa 0,0 l/m 0 min 0 min 0 W/m 23,0 km/h (4 Bft)
22.03.2015 03:58 4,6 C 3,3 C 92 % 1022,8 hPa 0,0 l/m 0 min 0 min 0 W/m 20,9 km/h (4 Bft)
22.03.2015 04:00 4,6 C 3,3 C 92 % 1022,8 hPa 0,0 l/m 0 min 0 min 0 W/m 31,4 km/h (5 Bft)
22.03.2015 04:02 4,6 C 3,3 C 92 % 1022,8 hPa 0,0 l/m 0 min 0 min 0 W/m 23,0 km/h (4 Bft)
22.03.2015 04:04 4,6 C 3,3 C 92 % 1022,7 hPa 0,0 l/m 0 min 0 min 0 W/m 29,3 km/h (5 Bft)
22.03.2015 04:06 4,6 C 3,3 C 92 % 1022,9 hPa 0,0 l/m 0 min 0 min 0 W/m 27,2 km/h (4 Bft)
22.03.2015 04:08 4,6 C 3,3 C 92 % 1022,9 hPa 0,0 l/m 0 min 0 min 0 W/m 20,9 km/h (4 Bft)
22.03.2015 04:10 4,6 C 3,3 C 92 % 1022,9 hPa 0,0 l/m 0 min 0 min 0 W/m 14,6 km/h (3 Bft)
22.03.2015 04:12 4,6 C 3,3 C 92 % 1022,9 hPa 0,0 l/m 0 min 0 min 0 W/m 25,1 km/h (4 Bft)
22.03.2015 04:14 4,6 C 3,3 C 92 % 1022,9 hPa 0,0 l/m 0 min 0 min 0 W/m 20,9 km/h (4 Bft)
22.03.2015 04:16 4,6 C 3,3 C 92 % 1022,9 hPa 0,0 l/m 0 min 0 min 0 W/m 33,5 km/h (5 Bft)
22.03.2015 04:18 4,6 C 3,3 C 92 % 1023,0 hPa 0,0 l/m 0 min 0 min 0 W/m 20,9 km/h (4 Bft)
22.03.2015 04:20 4,6 C 3,3 C 92 % 1023,1 hPa 0,0 l/m 0 min 0 min 0 W/m 23,0 km/h (4 Bft)
22.03.2015 04:22 4,6 C 3,3 C 92 % 1023,1 hPa 0,0 l/m 0 min 0 min 0 W/m 33,5 km/h (5 Bft)
22.03.2015 04:24 4,6 C 3,3 C 91 % 1023,1 hPa 0,0 l/m 0 min 0 min 0 W/m 27,2 km/h (4 Bft)
22.03.2015 04:26 4,6 C 3,3 C 91 % 1023,1 hPa 0,0 l/m 0 min 0 min 0 W/m 31,4 km/h (5 Bft)
22.03.2015 04:28 4,6 C 3,3 C 91 % 1023,0 hPa 0,0 l/m 0 min 0 min 0 W/m 23,0 km/h (4 Bft)
22.03.2015 04:30 4,6 C 3,3 C 91 % 1023,0 hPa 0,0 l/m 0 min 0 min 0 W/m 33,5 km/h (5 Bft)
22.03.2015 04:32 4,5 C 3,3 C 91 % 1023,1 hPa 0,0 l/m 0 min 0 min 0 W/m 18,8 km/h (3 Bft)
22.03.2015 04:34 4,5 C 3,3 C 91 % 1023,1 hPa 0,0 l/m 0 min 0 min 0 W/m 33,5 km/h (5 Bft)
22.03.2015 04:36 4,5 C 3,3 C 91 % 1023,2 hPa 0,0 l/m 0 min 0 min 0 W/m 27,2 km/h (4 Bft)
22.03.2015 04:38 4,4 C 3,3 C 91 % 1023,2 hPa 0,0 l/m 0 min 0 min 0 W/m 25,1 km/h (4 Bft)
22.03.2015 04:40 4,4 C 3,3 C 91 % 1023,2 hPa 0,0 l/m 0 min 0 min 0 W/m 29,3 km/h (5 Bft)
22.03.2015 04:42 4,4 C 3,3 C 91 % 1023,2 hPa 0,0 l/m 0 min 0 min 0 W/m 23,0 km/h (4 Bft)
22.03.2015 04:44 4,3 C 3,3 C 91 % 1023,2 hPa 0,0 l/m 0 min 0 min 0 W/m 25,1 km/h (4 Bft)
22.03.2015 04:46 4,3 C 3,3 C 91 % 1023,2 hPa 0,0 l/m 0 min 0 min 0 W/m 23,0 km/h (4 Bft)
22.03.2015 04:48 4,3 C 3,3 C 91 % 1023,2 hPa 0,0 l/m 0 min 0 min 0 W/m 25,1 km/h (4 Bft)
22.03.2015 04:50 4,3 C 3,3 C 91 % 1023,3 hPa 0,0 l/m 0 min 0 min 0 W/m 25,1 km/h (4 Bft)
22.03.2015 04:52 4,3 C 3,3 C 91 % 1023,3 hPa 0,0 l/m 0 min 0 min 0 W/m 23,0 km/h (4 Bft)
22.03.2015 04:54 4,3 C 3,3 C 91 % 1023,4 hPa 0,0 l/m 0 min 0 min 0 W/m 20,9 km/h (4 Bft)
22.03.2015 04:56 4,3 C 3,3 C 91 % 1023,4 hPa 0,0 l/m 0 min 0 min 0 W/m 23,0 km/h (4 Bft)
22.03.2015 04:58 4,3 C 3,3 C 91 % 1023,4 hPa 0,0 l/m 0 min 0 min 0 W/m 29,3 km/h (5 Bft)
22.03.2015 05:00 4,2 C 3,3 C 91 % 1023,3 hPa 0,0 l/m 0 min 0 min 0 W/m 31,4 km/h (5 Bft)
22.03.2015 05:02 4,2 C 3,3 C 91 % 1023,3 hPa 0,0 l/m 0 min 0 min 0 W/m 33,5 km/h (5 Bft)
22.03.2015 05:04 4,2 C 3,3 C 91 % 1023,3 hPa 0,0 l/m 0 min 0 min 0 W/m 37,7 km/h (5 Bft)
22.03.2015 05:06 4,2 C 3,3 C 91 % 1023,3 hPa 0,0 l/m 0 min 0 min 0 W/m 31,4 km/h (5 Bft)
22.03.2015 05:08 4,2 C 2,8 C 91 % 1023,3 hPa 0,0 l/m 0 min 0 min 0 W/m 29,3 km/h (5 Bft)
22.03.2015 05:10 4,1 C 2,8 C 91 % 1023,4 hPa 0,0 l/m 0 min 0 min 0 W/m 25,1 km/h (4 Bft)
22.03.2015 05:12 4,1 C 2,8 C 90 % 1023,3 hPa 0,0 l/m 0 min 0 min 0 W/m 29,3 km/h (5 Bft)
22.03.2015 05:14 4,1 C 2,8 C 90 % 1023,4 hPa 0,0 l/m 0 min 0 min 0 W/m 35,6 km/h (5 Bft)
22.03.2015 05:16 4,1 C 2,8 C 90 % 1023,4 hPa 0,0 l/m 0 min 0 min 0 W/m 39,7 km/h (6 Bft)
22.03.2015 05:18 4,1 C 2,8 C 90 % 1023,4 hPa 0,0 l/m 0 min 0 min 0 W/m 31,4 km/h (5 Bft)
22.03.2015 05:20 4,1 C 2,8 C 90 % 1023,4 hPa 0,0 l/m 0 min 0 min 0 W/m 29,3 km/h (5 Bft)
22.03.2015 05:22 4,1 C 2,8 C 90 % 1023,5 hPa 0,0 l/m 0 min 0 min 0 W/m 27,2 km/h (4 Bft)
22.03.2015 05:24 4,0 C 2,8 C 90 % 1023,5 hPa 0,0 l/m 0 min 0 min 0 W/m 31,4 km/h (5 Bft)
22.03.2015 05:26 4,0 C 2,8 C 90 % 1023,6 hPa 0,0 l/m 0 min 0 min 0 W/m 33,5 km/h (5 Bft)
22.03.2015 05:28 4,0 C 2,8 C 90 % 1023,5 hPa 0,0 l/m 0 min 0 min 0 W/m 29,3 km/h (5 Bft)
22.03.2015 05:30 4,0 C 2,8 C 90 % 1023,6 hPa 0,0 l/m 0 min 0 min 0 W/m 29,3 km/h (5 Bft)
22.03.2015 05:32 3,9 C 2,8 C 90 % 1023,6 hPa 0,0 l/m 0 min 0 min 0 W/m 23,0 km/h (4 Bft)
22.03.2015 05:34 3,9 C 2,8 C 89 % 1023,6 hPa 0,0 l/m 0 min 0 min 0 W/m 25,1 km/h (4 Bft)
22.03.2015 05:36 3,9 C 2,8 C 89 % 1023,7 hPa 0,0 l/m 0 min 0 min 0 W/m 27,2 km/h (4 Bft)
22.03.2015 05:38 3,9 C 2,8 C 89 % 1023,7 hPa 0,0 l/m 0 min 0 min 0 W/m 29,3 km/h (5 Bft)
22.03.2015 05:40 3,9 C 2,8 C 89 % 1023,7 hPa 0,0 l/m 0 min 0 min 0 W/m 27,2 km/h (4 Bft)
22.03.2015 05:42 3,9 C 2,8 C 89 % 1023,7 hPa 0,0 l/m 0 min 0 min 0 W/m 25,1 km/h (4 Bft)
22.03.2015 05:44 3,9 C 2,8 C 89 % 1023,7 hPa 0,0 l/m 0 min 0 min 0 W/m 20,9 km/h (4 Bft)
22.03.2015 05:46 3,9 C 2,8 C 89 % 1023,7 hPa 0,0 l/m 0 min 0 min 0 W/m 31,4 km/h (5 Bft)
22.03.2015 05:48 3,9 C 2,8 C 89 % 1023,7 hPa 0,0 l/m 0 min 0 min 0 W/m 29,3 km/h (5 Bft)
22.03.2015 05:50 3,9 C 2,8 C 89 % 1023,7 hPa 0,0 l/m 0 min 0 min 0 W/m 23,0 km/h (4 Bft)
22.03.2015 05:52 3,9 C 2,8 C 89 % 1023,8 hPa 0,0 l/m 0 min 0 min 0 W/m 25,1 km/h (4 Bft)
22.03.2015 05:54 3,9 C 2,8 C 89 % 1023,9 hPa 0,0 l/m 0 min 0 min 0 W/m 25,1 km/h (4 Bft)
22.03.2015 05:56 3,9 C 2,8 C 89 % 1023,9 hPa 0,0 l/m 0 min 0 min 0 W/m 23,0 km/h (4 Bft)
22.03.2015 05:58 3,8 C 2,8 C 89 % 1023,9 hPa 0,0 l/m 0 min 0 min 0 W/m 20,9 km/h (4 Bft)
22.03.2015 06:00 3,8 C 2,8 C 89 % 1023,9 hPa 0,0 l/m 0 min 0 min 0 W/m 18,8 km/h (3 Bft)
22.03.2015 06:03 3,8 C 2,8 C 89 % 1023,9 hPa 0,0 l/m 0 min 0 min 0 W/m 27,2 km/h (4 Bft)
22.03.2015 06:04 3,8 C 2,8 C 89 % 1023,9 hPa 0,0 l/m 0 min 0 min 0 W/m 20,9 km/h (4 Bft)
22.03.2015 06:06 3,8 C 2,8 C 89 % 1023,9 hPa 0,0 l/m 0 min 0 min 0 W/m 27,2 km/h (4 Bft)
22.03.2015 06:08 3,8 C 2,8 C 89 % 1023,9 hPa 0,0 l/m 0 min 0 min 0 W/m 20,9 km/h (4 Bft)
22.03.2015 06:10 3,8 C 2,8 C 89 % 1023,9 hPa 0,0 l/m 0 min 0 min 0 W/m 20,9 km/h (4 Bft)
22.03.2015 06:12 3,8 C 2,8 C 89 % 1023,9 hPa 0,0 l/m 0 min 0 min 0 W/m 29,3 km/h (5 Bft)
22.03.2015 06:14 3,8 C 2,8 C 89 % 1023,9 hPa 0,0 l/m 0 min 0 min 0 W/m 27,2 km/h (4 Bft)
22.03.2015 06:16 3,7 C 2,8 C 89 % 1023,9 hPa 0,0 l/m 0 min 0 min 0 W/m 23,0 km/h (4 Bft)
22.03.2015 06:18 3,7 C 2,8 C 89 % 1023,9 hPa 0,0 l/m 0 min 0 min 0 W/m 27,2 km/h (4 Bft)
22.03.2015 06:20 3,7 C 2,8 C 89 % 1023,9 hPa 0,0 l/m 0 min 0 min 0 W/m 25,1 km/h (4 Bft)
22.03.2015 06:22 3,7 C 2,8 C 89 % 1024,0 hPa 0,0 l/m 0 min 0 min 0 W/m 25,1 km/h (4 Bft)
22.03.2015 06:24 3,7 C 2,8 C 89 % 1024,0 hPa 0,0 l/m 0 min 0 min 0 W/m 31,4 km/h (5 Bft)
22.03.2015 06:26 3,7 C 2,8 C 89 % 1024,0 hPa 0,0 l/m 0 min 0 min 0 W/m 20,9 km/h (4 Bft)
22.03.2015 06:28 3,7 C 2,8 C 89 % 1024,0 hPa 0,0 l/m 0 min 0 min 0 W/m 31,4 km/h (5 Bft)
22.03.2015 06:30 3,7 C 2,8 C 89 % 1024,1 hPa 0,0 l/m 0 min 0 min 0 W/m 31,4 km/h (5 Bft)
22.03.2015 06:32 3,7 C 2,8 C 89 % 1024,1 hPa 0,0 l/m 0 min 0 min 0 W/m 23,0 km/h (4 Bft)
22.03.2015 06:34 3,7 C 2,8 C 89 % 1024,0 hPa 0,0 l/m 0 min 0 min 0 W/m 16,7 km/h (3 Bft)
22.03.2015 06:36 3,6 C 2,8 C 89 % 1024,0 hPa 0,0 l/m 0 min 0 min 0 W/m 33,5 km/h (5 Bft)
22.03.2015 06:38 3,6 C 2,8 C 89 % 1024,0 hPa 0,0 l/m 0 min 0 min 0 W/m 25,1 km/h (4 Bft)
22.03.2015 06:40 3,6 C 2,8 C 88 % 1024,1 hPa 0,0 l/m 0 min 0 min 0 W/m 18,8 km/h (3 Bft)
22.03.2015 06:42 3,6 C 2,8 C 88 % 1024,2 hPa 0,0 l/m 0 min 0 min 0 W/m 25,1 km/h (4 Bft)
22.03.2015 06:44 3,6 C 2,8 C 88 % 1024,1 hPa 0,0 l/m 0 min 0 min 0 W/m 29,3 km/h (5 Bft)
22.03.2015 06:46 3,6 C 2,8 C 88 % 1024,1 hPa 0,0 l/m 0 min 0 min 0 W/m 35,6 km/h (5 Bft)
22.03.2015 06:48 3,6 C 2,8 C 88 % 1024,1 hPa 0,0 l/m 0 min 0 min 1 W/m 31,4 km/h (5 Bft)
22.03.2015 06:50 3,6 C 2,8 C 88 % 1024,2 hPa 0,0 l/m 0 min 0 min 5 W/m 25,1 km/h (4 Bft)
22.03.2015 06:52 3,6 C 2,8 C 88 % 1024,3 hPa 0,0 l/m 0 min 0 min 5 W/m 35,6 km/h (5 Bft)
22.03.2015 06:54 3,5 C 2,2 C 88 % 1024,3 hPa 0,0 l/m 0 min 0 min 5 W/m 35,6 km/h (5 Bft)
22.03.2015 06:56 3,5 C 2,2 C 88 % 1024,3 hPa 0,0 l/m 0 min 0 min 7 W/m 31,4 km/h (5 Bft)
22.03.2015 06:58 3,5 C 2,2 C 88 % 1024,4 hPa 0,0 l/m 0 min 0 min 9 W/m 35,6 km/h (5 Bft)
22.03.2015 07:00 3,4 C 2,2 C 88 % 1024,3 hPa 0,0 l/m 0 min 0 min 9 W/m 33,5 km/h (5 Bft)
22.03.2015 07:02 3,4 C 2,2 C 87 % 1024,4 hPa 0,0 l/m 0 min 0 min 11 W/m 29,3 km/h (5 Bft)
22.03.2015 07:04 3,4 C 2,2 C 87 % 1024,3 hPa 0,0 l/m 0 min 0 min 12 W/m 27,2 km/h (4 Bft)
22.03.2015 07:06 3,4 C 2,2 C 87 % 1024,4 hPa 0,0 l/m 0 min 0 min 16 W/m 35,6 km/h (5 Bft)
22.03.2015 07:08 3,4 C 2,8 C 87 % 1024,5 hPa 0,0 l/m 0 min 0 min 18 W/m 29,3 km/h (5 Bft)
22.03.2015 07:10 3,4 C 2,8 C 86 % 1024,5 hPa 0,0 l/m 0 min 0 min 19 W/m 25,1 km/h (4 Bft)
22.03.2015 07:12 3,4 C 2,8 C 86 % 1024,6 hPa 0,0 l/m 0 min 0 min 18 W/m 20,9 km/h (4 Bft)
22.03.2015 07:14 3,4 C 2,8 C 86 % 1024,7 hPa 0,0 l/m 0 min 0 min 16 W/m 29,3 km/h (5 Bft)
22.03.2015 07:16 3,4 C 2,8 C 86 % 1024,7 hPa 0,0 l/m 0 min 0 min 16 W/m 18,8 km/h (3 Bft)
22.03.2015 07:18 3,4 C 2,8 C 86 % 1024,7 hPa 0,0 l/m 0 min 0 min 17 W/m 16,7 km/h (3 Bft)
22.03.2015 07:20 3,4 C 2,8 C 86 % 1024,7 hPa 0,0 l/m 0 min 0 min 18 W/m 16,7 km/h (3 Bft)
22.03.2015 07:22 3,4 C 2,8 C 86 % 1024,7 hPa 0,0 l/m 0 min 0 min 18 W/m 31,4 km/h (5 Bft)
22.03.2015 07:24 3,5 C 2,8 C 86 % 1024,7 hPa 0,0 l/m 0 min 0 min 19 W/m 29,3 km/h (5 Bft)
22.03.2015 07:26 3,5 C 2,8 C 86 % 1024,7 hPa 0,0 l/m 0 min 0 min 19 W/m 16,7 km/h (3 Bft)
22.03.2015 07:28 3,5 C 2,8 C 86 % 1024,7 hPa 0,0 l/m 0 min 0 min 22 W/m 16,7 km/h (3 Bft)
22.03.2015 07:30 3,5 C 2,8 C 86 % 1024,7 hPa 0,0 l/m 0 min 0 min 23 W/m 20,9 km/h (4 Bft)
22.03.2015 07:32 3,5 C 2,8 C 85 % 1024,8 hPa 0,0 l/m 0 min 0 min 23 W/m 18,8 km/h (3 Bft)
22.03.2015 07:34 3,5 C 2,8 C 85 % 1024,8 hPa 0,0 l/m 0 min 0 min 21 W/m 14,6 km/h (3 Bft)
22.03.2015 07:36 3,5 C 2,8 C 85 % 1024,9 hPa 0,0 l/m 0 min 0 min 19 W/m 20,9 km/h (4 Bft)
22.03.2015 07:38 3,5 C 2,8 C 85 % 1024,9 hPa 0,0 l/m 0 min 0 min 21 W/m 20,9 km/h (4 Bft)
22.03.2015 07:40 3,5 C 2,8 C 86 % 1024,9 hPa 0,0 l/m 0 min 0 min 21 W/m 27,2 km/h (4 Bft)
22.03.2015 07:42 3,5 C 2,8 C 86 % 1024,9 hPa 0,0 l/m 0 min 0 min 23 W/m 25,1 km/h (4 Bft)
22.03.2015 07:44 3,5 C 2,8 C 86 % 1024,9 hPa 0,0 l/m 0 min 0 min 25 W/m 31,4 km/h (5 Bft)
22.03.2015 07:46 3,5 C 2,8 C 85 % 1025,0 hPa 0,0 l/m 0 min 0 min 29 W/m 23,0 km/h (4 Bft)
22.03.2015 07:48 3,5 C 2,8 C 85 % 1025,0 hPa 0,0 l/m 0 min 0 min 33 W/m 33,5 km/h (5 Bft)
22.03.2015 07:50 3,5 C 2,8 C 85 % 1025,0 hPa 0,0 l/m 0 min 0 min 37 W/m 29,3 km/h (5 Bft)
22.03.2015 07:52 3,5 C 2,8 C 85 % 1025,1 hPa 0,0 l/m 0 min 0 min 38 W/m 29,3 km/h (5 Bft)
22.03.2015 07:54 3,5 C 2,8 C 85 % 1025,1 hPa 0,0 l/m 0 min 0 min 35 W/m 29,3 km/h (5 Bft)
22.03.2015 07:56 3,5 C 2,8 C 85 % 1025,2 hPa 0,0 l/m 0 min 0 min 33 W/m 16,7 km/h (3 Bft)
22.03.2015 07:58 3,5 C 2,8 C 85 % 1025,2 hPa 0,0 l/m 0 min 0 min 36 W/m 18,8 km/h (3 Bft)
22.03.2015 08:00 3,5 C 2,8 C 85 % 1025,2 hPa 0,0 l/m 0 min 0 min 38 W/m 27,2 km/h (4 Bft)
22.03.2015 08:02 3,5 C 2,8 C 85 % 1025,2 hPa 0,0 l/m 0 min 0 min 40 W/m 27,2 km/h (4 Bft)
22.03.2015 08:04 3,5 C 2,8 C 85 % 1025,2 hPa 0,0 l/m 0 min 0 min 40 W/m 29,3 km/h (5 Bft)
22.03.2015 08:06 3,5 C 2,8 C 85 % 1025,3 hPa 0,0 l/m 0 min 0 min 43 W/m 27,2 km/h (4 Bft)
22.03.2015 08:08 3,5 C 2,8 C 85 % 1025,2 hPa 0,0 l/m 0 min 0 min 43 W/m 25,1 km/h (4 Bft)
22.03.2015 08:10 3,5 C 2,8 C 85 % 1025,2 hPa 0,0 l/m 0 min 0 min 46 W/m 33,5 km/h (5 Bft)
22.03.2015 08:12 3,5 C 2,8 C 84 % 1025,3 hPa 0,0 l/m 0 min 0 min 50 W/m 33,5 km/h (5 Bft)
22.03.2015 08:14 3,5 C 2,8 C 84 % 1025,3 hPa 0,0 l/m 0 min 0 min 53 W/m 29,3 km/h (5 Bft)
22.03.2015 08:16 3,4 C 2,8 C 84 % 1025,3 hPa 0,0 l/m 0 min 0 min 56 W/m 33,5 km/h (5 Bft)
22.03.2015 08:18 3,5 C 2,8 C 84 % 1025,3 hPa 0,0 l/m 0 min 0 min 60 W/m 25,1 km/h (4 Bft)
22.03.2015 08:20 3,5 C 2,8 C 84 % 1025,3 hPa 0,0 l/m 0 min 0 min 63 W/m 29,3 km/h (5 Bft)
22.03.2015 08:22 3,5 C 2,8 C 83 % 1025,4 hPa 0,0 l/m 0 min 0 min 59 W/m 27,2 km/h (4 Bft)
22.03.2015 08:24 3,5 C 2,8 C 83 % 1025,4 hPa 0,0 l/m 0 min 0 min 60 W/m 29,3 km/h (5 Bft)
22.03.2015 08:26 3,5 C 2,8 C 84 % 1025,4 hPa 0,0 l/m 0 min 0 min 59 W/m 23,0 km/h (4 Bft)
22.03.2015 08:28 3,5 C 2,8 C 84 % 1025,4 hPa 0,0 l/m 0 min 0 min 59 W/m 18,8 km/h (3 Bft)
22.03.2015 08:30 3,6 C 2,8 C 84 % 1025,4 hPa 0,0 l/m 0 min 0 min 58 W/m 14,6 km/h (3 Bft)
22.03.2015 08:32 3,6 C 2,8 C 84 % 1025,4 hPa 0,0 l/m 0 min 0 min 61 W/m 14,6 km/h (3 Bft)
22.03.2015 08:34 3,6 C 3,3 C 84 % 1025,4 hPa 0,0 l/m 0 min 0 min 57 W/m 20,9 km/h (4 Bft)
22.03.2015 08:36 3,6 C 2,8 C 84 % 1025,5 hPa 0,0 l/m 0 min 0 min 52 W/m 20,9 km/h (4 Bft)
22.03.2015 08:38 3,6 C 2,8 C 84 % 1025,4 hPa 0,0 l/m 0 min 0 min 49 W/m 18,8 km/h (3 Bft)
22.03.2015 08:40 3,6 C 2,8 C 84 % 1025,5 hPa 0,0 l/m 0 min 0 min 49 W/m 10,5 km/h (2 Bft)
22.03.2015 08:42 3,6 C 2,8 C 84 % 1025,5 hPa 0,0 l/m 0 min 0 min 53 W/m 14,6 km/h (3 Bft)
22.03.2015 08:44 3,7 C 2,8 C 84 % 1025,5 hPa 0,0 l/m 0 min 0 min 56 W/m 18,8 km/h (3 Bft)
22.03.2015 08:46 3,7 C 3,3 C 84 % 1025,5 hPa 0,0 l/m 0 min 0 min 61 W/m 16,7 km/h (3 Bft)
22.03.2015 08:48 3,7 C 3,3 C 84 % 1025,5 hPa 0,0 l/m 0 min 0 min 61 W/m 25,1 km/h (4 Bft)
22.03.2015 08:50 3,7 C 3,3 C 85 % 1025,6 hPa 0,0 l/m 0 min 0 min 55 W/m 25,1 km/h (4 Bft)
22.03.2015 08:52 3,7 C 3,3 C 85 % 1025,6 hPa 0,0 l/m 0 min 0 min 56 W/m 18,8 km/h (3 Bft)
22.03.2015 08:54 3,7 C 2,8 C 85 % 1025,6 hPa 0,0 l/m 0 min 0 min 57 W/m 27,2 km/h (4 Bft)
22.03.2015 08:56 3,7 C 2,8 C 85 % 1025,6 hPa 0,0 l/m 0 min 0 min 56 W/m 23,0 km/h (4 Bft)
22.03.2015 08:58 3,7 C 2,8 C 85 % 1025,6 hPa 0,0 l/m 0 min 0 min 58 W/m 20,9 km/h (4 Bft)
22.03.2015 09:00 3,7 C 2,8 C 85 % 1025,7 hPa 0,0 l/m 0 min 0 min 62 W/m 16,7 km/h (3 Bft)
22.03.2015 09:02 3,7 C 2,8 C 85 % 1025,7 hPa 0,0 l/m 0 min 0 min 64 W/m 20,9 km/h (4 Bft)
22.03.2015 09:04 3,7 C 3,3 C 85 % 1025,6 hPa 0,0 l/m 0 min 0 min 67 W/m 16,7 km/h (3 Bft)
22.03.2015 09:06 3,7 C 3,3 C 85 % 1025,7 hPa 0,0 l/m 0 min 0 min 68 W/m 12,6 km/h (3 Bft)
22.03.2015 09:08 3,7 C 3,3 C 85 % 1025,7 hPa 0,0 l/m 0 min 0 min 73 W/m 35,6 km/h (5 Bft)
22.03.2015 09:10 3,7 C 3,3 C 84 % 1025,6 hPa 0,0 l/m 0 min 0 min 79 W/m 33,5 km/h (5 Bft)
22.03.2015 09:12 3,6 C 2,8 C 84 % 1025,6 hPa 0,0 l/m 0 min 0 min 84 W/m 23,0 km/h (4 Bft)
22.03.2015 09:14 3,6 C 2,8 C 84 % 1025,6 hPa 0,0 l/m 0 min 0 min 92 W/m 29,3 km/h (5 Bft)
22.03.2015 09:16 3,6 C 3,3 C 84 % 1025,6 hPa 0,0 l/m 0 min 0 min 102 W/m 18,8 km/h (3 Bft)
22.03.2015 09:18 3,6 C 3,3 C 84 % 1025,7 hPa 0,0 l/m 0 min 0 min 107 W/m 23,0 km/h (4 Bft)
22.03.2015 09:20 3,6 C 3,3 C 84 % 1025,7 hPa 0,0 l/m 0 min 0 min 110 W/m 25,1 km/h (4 Bft)
22.03.2015 09:22 3,6 C 3,3 C 83 % 1025,7 hPa 0,0 l/m 0 min 0 min 117 W/m 27,2 km/h (4 Bft)
22.03.2015 09:24 3,6 C 3,3 C 83 % 1025,7 hPa 0,0 l/m 0 min 0 min 123 W/m 27,2 km/h (4 Bft)
22.03.2015 09:26 3,6 C 3,3 C 83 % 1025,6 hPa 0,0 l/m 0 min 0 min 122 W/m 27,2 km/h (4 Bft)
22.03.2015 09:28 3,6 C 3,3 C 83 % 1025,6 hPa 0,0 l/m 0 min 0 min 122 W/m 25,1 km/h (4 Bft)
22.03.2015 09:30 3,6 C 3,3 C 83 % 1025,6 hPa 0,0 l/m 0 min 0 min 117 W/m 23,0 km/h (4 Bft)
22.03.2015 09:32 3,6 C 3,3 C 83 % 1025,6 hPa 0,0 l/m 0 min 0 min 113 W/m 25,1 km/h (4 Bft)
22.03.2015 09:34 3,6 C 3,3 C 83 % 1025,6 hPa 0,0 l/m 0 min 0 min 117 W/m 31,4 km/h (5 Bft)
22.03.2015 09:36 3,6 C 3,3 C 83 % 1025,6 hPa 0,0 l/m 0 min 0 min 114 W/m 20,9 km/h (4 Bft)
22.03.2015 09:38 3,6 C 3,3 C 83 % 1025,6 hPa 0,0 l/m 0 min 0 min 106 W/m 18,8 km/h (3 Bft)
22.03.2015 09:40 3,7 C 3,3 C 83 % 1025,6 hPa 0,0 l/m 0 min 0 min 99 W/m 27,2 km/h (4 Bft)
22.03.2015 09:42 3,6 C 3,3 C 83 % 1025,7 hPa 0,0 l/m 0 min 0 min 96 W/m 18,8 km/h (3 Bft)
22.03.2015 09:44 3,7 C 3,3 C 83 % 1025,6 hPa 0,0 l/m 0 min 0 min 97 W/m 14,6 km/h (3 Bft)
22.03.2015 09:46 3,6 C 3,3 C 83 % 1025,7 hPa 0,0 l/m 0 min 0 min 104 W/m 18,8 km/h (3 Bft)
22.03.2015 09:48 3,7 C 3,3 C 83 % 1025,7 hPa 0,0 l/m 0 min 0 min 114 W/m 20,9 km/h (4 Bft)
22.03.2015 09:50 3,7 C 3,3 C 83 % 1025,7 hPa 0,0 l/m 0 min 0 min 117 W/m 23,0 km/h (4 Bft)
22.03.2015 09:52 3,7 C 3,3 C 83 % 1025,7 hPa 0,0 l/m 0 min 0 min 109 W/m 27,2 km/h (4 Bft)
22.03.2015 09:54 3,7 C 3,3 C 83 % 1025,7 hPa 0,0 l/m 0 min 0 min 108 W/m 20,9 km/h (4 Bft)
22.03.2015 09:56 3,7 C 3,3 C 83 % 1025,7 hPa 0,0 l/m 0 min 0 min 106 W/m 29,3 km/h (5 Bft)
22.03.2015 09:58 3,7 C 3,3 C 83 % 1025,7 hPa 0,0 l/m 0 min 0 min 108 W/m 29,3 km/h (5 Bft)
22.03.2015 10:00 3,7 C 3,3 C 83 % 1025,7 hPa 0,0 l/m 0 min 0 min 105 W/m 29,3 km/h (5 Bft)
22.03.2015 10:02 3,7 C 3,3 C 83 % 1025,7 hPa 0,0 l/m 0 min 0 min 111 W/m 31,4 km/h (5 Bft)
22.03.2015 10:04 3,7 C 3,3 C 83 % 1025,7 hPa 0,0 l/m 0 min 0 min 119 W/m 20,9 km/h (4 Bft)
22.03.2015 10:06 3,7 C 3,3 C 83 % 1025,7 hPa 0,0 l/m 0 min 0 min 130 W/m 20,9 km/h (4 Bft)
22.03.2015 10:08 3,7 C 3,3 C 83 % 1025,7 hPa 0,0 l/m 0 min 0 min 148 W/m 27,2 km/h (4 Bft)
22.03.2015 10:10 3,7 C 3,9 C 83 % 1025,7 hPa 0,0 l/m 2 min 0 min 165 W/m 20,9 km/h (4 Bft)
22.03.2015 10:12 3,7 C 3,9 C 83 % 1025,7 hPa 0,0 l/m 0 min 0 min 158 W/m 16,7 km/h (3 Bft)
22.03.2015 10:14 3,8 C 3,9 C 83 % 1025,8 hPa 0,0 l/m 0 min 0 min 165 W/m 23,0 km/h (4 Bft)
22.03.2015 10:16 3,8 C 3,9 C 83 % 1025,7 hPa 0,0 l/m 0 min 0 min 160 W/m 16,7 km/h (3 Bft)
22.03.2015 10:18 3,8 C 3,9 C 83 % 1025,7 hPa 0,0 l/m 0 min 0 min 147 W/m 27,2 km/h (4 Bft)
22.03.2015 10:20 3,8 C 3,9 C 83 % 1025,8 hPa 0,0 l/m 0 min 0 min 150 W/m 20,9 km/h (4 Bft)
22.03.2015 10:22 3,9 C 3,9 C 83 % 1025,7 hPa 0,0 l/m 0 min 0 min 158 W/m 27,2 km/h (4 Bft)
22.03.2015 10:24 3,8 C 3,9 C 82 % 1025,8 hPa 0,0 l/m 0 min 0 min 162 W/m 29,3 km/h (5 Bft)
22.03.2015 10:26 3,8 C 3,9 C 82 % 1025,8 hPa 0,0 l/m 0 min 0 min 163 W/m 29,3 km/h (5 Bft)
22.03.2015 10:28 3,8 C 3,9 C 82 % 1025,8 hPa 0,0 l/m 0 min 0 min 159 W/m 33,5 km/h (5 Bft)
22.03.2015 10:30 3,9 C 3,9 C 82 % 1025,9 hPa 0,0 l/m 0 min 0 min 155 W/m 20,9 km/h (4 Bft)
22.03.2015 10:32 3,9 C 4,4 C 82 % 1025,9 hPa 0,0 l/m 0 min 0 min 155 W/m 20,9 km/h (4 Bft)
22.03.2015 10:34 3,9 C 4,4 C 82 % 1025,9 hPa 0,0 l/m 0 min 0 min 155 W/m 23,0 km/h (4 Bft)
22.03.2015 10:36 3,9 C 4,4 C 82 % 1025,9 hPa 0,0 l/m 0 min 0 min 153 W/m 27,2 km/h (4 Bft)
22.03.2015 10:38 3,9 C 3,9 C 82 % 1025,9 hPa 0,0 l/m 0 min 0 min 153 W/m 27,2 km/h (4 Bft)
22.03.2015 10:40 3,9 C 4,4 C 82 % 1025,9 hPa 0,0 l/m 0 min 0 min 168 W/m 23,0 km/h (4 Bft)
22.03.2015 10:42 3,9 C 4,4 C 82 % 1025,9 hPa 0,0 l/m 0 min 0 min 171 W/m 23,0 km/h (4 Bft)
22.03.2015 10:44 3,9 C 4,4 C 82 % 1025,9 hPa 0,0 l/m 0 min 0 min 169 W/m 20,9 km/h (4 Bft)
22.03.2015 10:46 3,9 C 3,9 C 82 % 1025,9 hPa 0,0 l/m 0 min 0 min 165 W/m 27,2 km/h (4 Bft)
22.03.2015 10:48 4,0 C 4,4 C 82 % 1025,9 hPa 0,0 l/m 0 min 0 min 154 W/m 23,0 km/h (4 Bft)
22.03.2015 10:50 4,0 C 3,9 C 82 % 1025,9 hPa 0,0 l/m 0 min 0 min 146 W/m 27,2 km/h (4 Bft)
22.03.2015 10:52 4,0 C 3,9 C 82 % 1025,9 hPa 0,0 l/m 0 min 0 min 141 W/m 23,0 km/h (4 Bft)
22.03.2015 10:54 4,0 C 3,9 C 82 % 1026,0 hPa 0,0 l/m 0 min 0 min 139 W/m 16,7 km/h (3 Bft)
22.03.2015 10:56 4,0 C 3,9 C 82 % 1026,0 hPa 0,0 l/m 0 min 0 min 138 W/m 18,8 km/h (3 Bft)
22.03.2015 10:58 4,0 C 3,9 C 82 % 1026,0 hPa 0,0 l/m 0 min 0 min 135 W/m 20,9 km/h (4 Bft)
22.03.2015 11:00 4,0 C 3,9 C 82 % 1026,0 hPa 0,0 l/m 0 min 0 min 134 W/m 23,0 km/h (4 Bft)
22.03.2015 11:02 4,0 C 3,9 C 81 % 1025,9 hPa 0,0 l/m 0 min 0 min 134 W/m 14,6 km/h (3 Bft)
22.03.2015 11:04 4,0 C 3,9 C 81 % 1026,0 hPa 0,0 l/m 0 min 0 min 140 W/m 18,8 km/h (3 Bft)
22.03.2015 11:06 4,0 C 3,9 C 81 % 1026,0 hPa 0,0 l/m 0 min 0 min 142 W/m 31,4 km/h (5 Bft)
22.03.2015 11:08 4,0 C 3,9 C 81 % 1026,0 hPa 0,0 l/m 0 min 0 min 136 W/m 14,6 km/h (3 Bft)
22.03.2015 11:10 4,0 C 3,9 C 81 % 1026,0 hPa 0,0 l/m 0 min 0 min 137 W/m 16,7 km/h (3 Bft)
22.03.2015 11:12 4,0 C 3,9 C 81 % 1026,1 hPa 0,0 l/m 0 min 0 min 141 W/m 20,9 km/h (4 Bft)
22.03.2015 11:14 4,0 C 3,9 C 81 % 1026,0 hPa 0,0 l/m 0 min 0 min 139 W/m 20,9 km/h (4 Bft)
22.03.2015 11:16 4,0 C 3,9 C 81 % 1026,0 hPa 0,0 l/m 0 min 0 min 140 W/m 27,2 km/h (4 Bft)
22.03.2015 11:18 3,9 C 3,9 C 81 % 1026,0 hPa 0,0 l/m 0 min 0 min 148 W/m 18,8 km/h (3 Bft)
22.03.2015 11:20 3,9 C 3,9 C 81 % 1025,9 hPa 0,0 l/m 0 min 0 min 161 W/m 16,7 km/h (3 Bft)
22.03.2015 11:22 4,0 C 3,9 C 81 % 1025,9 hPa 0,0 l/m 0 min 0 min 178 W/m 23,0 km/h (4 Bft)
22.03.2015 11:24 4,0 C 4,4 C 81 % 1026,0 hPa 0,0 l/m 2 min 0 min 212 W/m 20,9 km/h (4 Bft)
22.03.2015 11:26 4,0 C 4,4 C 81 % 1026,0 hPa 0,0 l/m 2 min 0 min 202 W/m 20,9 km/h (4 Bft)
22.03.2015 11:28 4,0 C 4,4 C 81 % 1025,9 hPa 0,0 l/m 0 min 0 min 174 W/m 20,9 km/h (4 Bft)
22.03.2015 11:30 4,0 C 4,4 C 81 % 1025,9 hPa 0,0 l/m 0 min 0 min 172 W/m 27,2 km/h (4 Bft)
22.03.2015 11:32 4,0 C 4,4 C 81 % 1025,9 hPa 0,0 l/m 0 min 0 min 176 W/m 27,2 km/h (4 Bft)
22.03.2015 11:34 4,1 C 4,4 C 81 % 1025,9 hPa 0,0 l/m 0 min 0 min 185 W/m 18,8 km/h (3 Bft)
22.03.2015 11:36 4,1 C 4,4 C 81 % 1025,9 hPa 0,0 l/m 0 min 0 min 192 W/m 20,9 km/h (4 Bft)
22.03.2015 11:38 4,1 C 4,4 C 81 % 1025,9 hPa 0,0 l/m 0 min 0 min 191 W/m 20,9 km/h (4 Bft)
22.03.2015 11:40 4,2 C 4,4 C 81 % 1025,9 hPa 0,0 l/m 0 min 0 min 183 W/m 16,7 km/h (3 Bft)
22.03.2015 11:42 4,2 C 4,4 C 81 % 1025,9 hPa 0,0 l/m 0 min 0 min 198 W/m 20,9 km/h (4 Bft)
22.03.2015 11:44 4,2 C 4,4 C 81 % 1025,9 hPa 0,0 l/m 2 min 0 min 206 W/m 23,0 km/h (4 Bft)
22.03.2015 11:46 4,2 C 4,4 C 81 % 1025,8 hPa 0,0 l/m 0 min 0 min 194 W/m 20,9 km/h (4 Bft)
22.03.2015 11:48 4,2 C 4,4 C 81 % 1025,7 hPa 0,0 l/m 2 min 0 min 203 W/m 23,0 km/h (4 Bft)
22.03.2015 11:50 4,2 C 4,4 C 80 % 1025,7 hPa 0,0 l/m 2 min 0 min 219 W/m 23,0 km/h (4 Bft)
22.03.2015 11:52 4,3 C 5,0 C 80 % 1025,7 hPa 0,0 l/m 2 min 0 min 219 W/m 18,8 km/h (3 Bft)
22.03.2015 11:54 4,3 C 5,0 C 81 % 1025,8 hPa 0,0 l/m 2 min 0 min 213 W/m 10,5 km/h (2 Bft)
22.03.2015 11:56 4,3 C 5,0 C 81 % 1025,8 hPa 0,0 l/m 0 min 0 min 193 W/m 16,7 km/h (3 Bft)
22.03.2015 11:58 4,4 C 5,0 C 81 % 1025,8 hPa 0,0 l/m 0 min 0 min 175 W/m 18,8 km/h (3 Bft)
22.03.2015 12:00 4,4 C 5,0 C 81 % 1025,8 hPa 0,0 l/m 0 min 0 min 172 W/m 16,7 km/h (3 Bft)
22.03.2015 12:02 4,4 C 4,4 C 80 % 1025,8 hPa 0,0 l/m 0 min 0 min 177 W/m 20,9 km/h (4 Bft)
22.03.2015 12:06 4,5 C 4,4 C 80 % 1025,8 hPa 0,0 l/m 0 min 0 min 185 W/m 27,2 km/h (4 Bft)
22.03.2015 12:08 4,5 C 5,0 C 80 % 1025,7 hPa 0,0 l/m 2 min 0 min 206 W/m 20,9 km/h (4 Bft)
22.03.2015 12:10 4,5 C 4,4 C 80 % 1025,7 hPa 0,0 l/m 0 min 0 min 203 W/m 20,9 km/h (4 Bft)
22.03.2015 12:12 4,6 C 5,0 C 80 % 1025,7 hPa 0,0 l/m 2 min 0 min 213 W/m 20,9 km/h (4 Bft)
22.03.2015 12:14 4,6 C 5,0 C 80 % 1025,7 hPa 0,0 l/m 2 min 0 min 208 W/m 14,6 km/h (3 Bft)
22.03.2015 12:16 4,6 C 5,0 C 80 % 1025,7 hPa 0,0 l/m 0 min 0 min 178 W/m 14,6 km/h (3 Bft)
22.03.2015 12:18 4,6 C 5,0 C 80 % 1025,6 hPa 0,0 l/m 0 min 0 min 164 W/m 20,9 km/h (4 Bft)
22.03.2015 12:20 4,6 C 5,0 C 80 % 1025,7 hPa 0,0 l/m 0 min 0 min 158 W/m 20,9 km/h (4 Bft)
22.03.2015 12:22 4,6 C 5,0 C 80 % 1025,6 hPa 0,0 l/m 0 min 0 min 166 W/m 16,7 km/h (3 Bft)
22.03.2015 12:24 4,6 C 5,0 C 80 % 1025,6 hPa 0,0 l/m 0 min 0 min 169 W/m 18,8 km/h (3 Bft)
22.03.2015 12:26 4,6 C 5,0 C 80 % 1025,6 hPa 0,0 l/m 0 min 0 min 178 W/m 23,0 km/h (4 Bft)
22.03.2015 12:28 4,6 C 5,0 C 80 % 1025,6 hPa 0,0 l/m 0 min 0 min 191 W/m 14,6 km/h (3 Bft)
22.03.2015 12:30 4,7 C 5,0 C 80 % 1025,5 hPa 0,0 l/m 0 min 0 min 197 W/m 16,7 km/h (3 Bft)
22.03.2015 12:32 4,7 C 5,0 C 79 % 1025,5 hPa 0,0 l/m 2 min 0 min 233 W/m 18,8 km/h (3 Bft)
22.03.2015 12:34 4,7 C 5,0 C 79 % 1025,6 hPa 0,0 l/m 2 min 0 min 254 W/m 23,0 km/h (4 Bft)
22.03.2015 12:36 4,7 C 5,6 C 79 % 1025,5 hPa 0,0 l/m 2 min 0 min 255 W/m 14,6 km/h (3 Bft)
22.03.2015 12:38 4,7 C 5,6 C 79 % 1025,5 hPa 0,0 l/m 2 min 0 min 287 W/m 23,0 km/h (4 Bft)
22.03.2015 12:40 4,8 C 5,6 C 79 % 1025,4 hPa 0,0 l/m 2 min 0 min 352 W/m 18,8 km/h (3 Bft)
22.03.2015 12:42 4,8 C 6,1 C 78 % 1025,3 hPa 0,0 l/m 2 min 0 min 405 W/m 20,9 km/h (4 Bft)
22.03.2015 12:44 4,8 C 5,6 C 78 % 1025,3 hPa 0,0 l/m 2 min 0 min 396 W/m 23,0 km/h (4 Bft)
22.03.2015 12:46 4,9 C 6,1 C 78 % 1025,2 hPa 0,0 l/m 2 min 0 min 364 W/m 23,0 km/h (4 Bft)
22.03.2015 12:48 4,9 C 6,1 C 78 % 1025,2 hPa 0,0 l/m 2 min 0 min 325 W/m 23,0 km/h (4 Bft)
22.03.2015 12:50 5,0 C 6,7 C 78 % 1025,2 hPa 0,0 l/m 2 min 0 min 358 W/m 20,9 km/h (4 Bft)
22.03.2015 12:52 5,1 C 6,7 C 78 % 1025,3 hPa 0,0 l/m 2 min 0 min 431 W/m 16,7 km/h (3 Bft)
22.03.2015 12:54 5,2 C 6,7 C 78 % 1025,3 hPa 0,0 l/m 2 min 0 min 530 W/m 23,0 km/h (4 Bft)
22.03.2015 12:56 5,3 C 6,7 C 78 % 1025,2 hPa 0,0 l/m 2 min 0 min 779 W/m 20,9 km/h (4 Bft)
22.03.2015 12:58 5,4 C 6,7 C 78 % 1025,1 hPa 0,0 l/m 2 min 0 min 810 W/m 23,0 km/h (4 Bft)
22.03.2015 13:00 5,6 C 6,7 C 78 % 1025,1 hPa 0,0 l/m 2 min 0 min 810 W/m 23,0 km/h (4 Bft)
22.03.2015 13:02 5,8 C 6,7 C 77 % 1025,1 hPa 0,0 l/m 2 min 0 min 645 W/m 23,0 km/h (4 Bft)
22.03.2015 13:04 5,8 C 6,7 C 77 % 1025,2 hPa 0,0 l/m 2 min 0 min 517 W/m 23,0 km/h (4 Bft)
22.03.2015 13:06 5,9 C 6,7 C 75 % 1025,1 hPa 0,0 l/m 2 min 0 min 396 W/m 27,2 km/h (4 Bft)
22.03.2015 13:08 5,8 C 5,6 C 74 % 1025,0 hPa 0,0 l/m 2 min 0 min 346 W/m 23,0 km/h (4 Bft)
22.03.2015 13:10 5,8 C 6,1 C 75 % 1025,1 hPa 0,0 l/m 2 min 0 min 352 W/m 27,2 km/h (4 Bft)
22.03.2015 13:12 5,7 C 6,1 C 75 % 1025,0 hPa 0,0 l/m 2 min 0 min 378 W/m 23,0 km/h (4 Bft)
22.03.2015 13:14 5,7 C 6,1 C 75 % 1024,9 hPa 0,0 l/m 2 min 0 min 365 W/m 18,8 km/h (3 Bft)
22.03.2015 13:16 5,7 C 6,1 C 76 % 1024,9 hPa 0,0 l/m 2 min 0 min 314 W/m 23,0 km/h (4 Bft)
22.03.2015 13:18 5,7 C 5,6 C 75 % 1024,9 hPa 0,0 l/m 2 min 0 min 262 W/m 20,9 km/h (4 Bft)
22.03.2015 13:20 5,6 C 5,6 C 75 % 1025,0 hPa 0,0 l/m 2 min 0 min 245 W/m 20,9 km/h (4 Bft)
22.03.2015 13:22 5,6 C 5,6 C 75 % 1025,0 hPa 0,0 l/m 2 min 0 min 289 W/m 18,8 km/h (3 Bft)
22.03.2015 13:24 5,6 C 6,1 C 76 % 1024,9 hPa 0,0 l/m 2 min 0 min 334 W/m 23,0 km/h (4 Bft)
22.03.2015 13:26 5,6 C 6,1 C 76 % 1024,9 hPa 0,0 l/m 2 min 0 min 352 W/m 18,8 km/h (3 Bft)
22.03.2015 13:28 5,5 C 6,1 C 76 % 1024,7 hPa 0,0 l/m 2 min 0 min 384 W/m 25,1 km/h (4 Bft)
22.03.2015 13:30 5,6 C 6,1 C 76 % 1024,8 hPa 0,0 l/m 2 min 0 min 386 W/m 20,9 km/h (4 Bft)
22.03.2015 13:32 5,5 C 5,6 C 75 % 1024,7 hPa 0,0 l/m 2 min 0 min 365 W/m 27,2 km/h (4 Bft)
22.03.2015 13:34 5,5 C 5,6 C 75 % 1024,7 hPa 0,0 l/m 2 min 0 min 207 W/m 20,9 km/h (4 Bft)
22.03.2015 13:36 5,4 C 5,6 C 75 % 1024,8 hPa 0,0 l/m 2 min 0 min 255 W/m 18,8 km/h (3 Bft)
22.03.2015 13:38 5,4 C 5,6 C 75 % 1024,8 hPa 0,0 l/m 2 min 0 min 289 W/m 23,0 km/h (4 Bft)
22.03.2015 13:40 5,4 C 5,6 C 75 % 1024,8 hPa 0,0 l/m 2 min 0 min 303 W/m 12,6 km/h (3 Bft)
22.03.2015 13:42 5,4 C 6,1 C 75 % 1024,6 hPa 0,0 l/m 2 min 0 min 338 W/m 23,0 km/h (4 Bft)
22.03.2015 13:44 5,4 C 6,1 C 76 % 1024,6 hPa 0,0 l/m 2 min 0 min 299 W/m 18,8 km/h (3 Bft)
22.03.2015 13:46 5,4 C 5,6 C 75 % 1024,5 hPa 0,0 l/m 2 min 0 min 266 W/m 20,9 km/h (4 Bft)
22.03.2015 13:48 5,4 C 5,6 C 75 % 1024,5 hPa 0,0 l/m 2 min 0 min 365 W/m 14,6 km/h (3 Bft)
22.03.2015 13:50 5,5 C 6,1 C 76 % 1024,5 hPa 0,0 l/m 2 min 0 min 440 W/m 25,1 km/h (4 Bft)
22.03.2015 13:52 5,6 C 5,6 C 75 % 1024,4 hPa 0,0 l/m 2 min 0 min 374 W/m 20,9 km/h (4 Bft)
22.03.2015 13:54 5,6 C 5,6 C 75 % 1024,3 hPa 0,0 l/m 2 min 0 min 682 W/m 18,8 km/h (3 Bft)
22.03.2015 13:56 5,7 C 6,1 C 76 % 1024,4 hPa 0,0 l/m 2 min 0 min 726 W/m 18,8 km/h (3 Bft)
22.03.2015 13:58 5,8 C 6,7 C 76 % 1024,3 hPa 0,0 l/m 2 min 0 min 680 W/m 25,1 km/h (4 Bft)
22.03.2015 14:00 5,9 C 6,1 C 76 % 1024,2 hPa 0,0 l/m 2 min 0 min 667 W/m 25,1 km/h (4 Bft)
22.03.2015 14:02 6,0 C 6,1 C 75 % 1024,2 hPa 0,0 l/m 2 min 0 min 599 W/m 18,8 km/h (3 Bft)
22.03.2015 14:04 6,1 C 6,1 C 75 % 1024,3 hPa 0,0 l/m 0 min 0 min 163 W/m 14,6 km/h (3 Bft)
22.03.2015 14:06 6,1 C 6,1 C 75 % 1024,3 hPa 0,0 l/m 2 min 0 min 203 W/m 10,5 km/h (2 Bft)
22.03.2015 14:08 6,1 C 6,1 C 74 % 1024,4 hPa 0,0 l/m 2 min 0 min 228 W/m 14,6 km/h (3 Bft)
22.03.2015 14:10 6,1 C 6,1 C 74 % 1024,4 hPa 0,0 l/m 2 min 0 min 222 W/m 23,0 km/h (4 Bft)
22.03.2015 14:12 6,1 C 6,1 C 74 % 1024,3 hPa 0,0 l/m 2 min 0 min 227 W/m 12,6 km/h (3 Bft)
22.03.2015 14:14 6,1 C 6,1 C 74 % 1024,3 hPa 0,0 l/m 2 min 0 min 253 W/m 23,0 km/h (4 Bft)
22.03.2015 14:16 6,1 C 6,1 C 74 % 1024,1 hPa 0,0 l/m 2 min 0 min 277 W/m 29,3 km/h (5 Bft)
22.03.2015 14:18 6,1 C 6,7 C 74 % 1024,1 hPa 0,0 l/m 2 min 0 min 294 W/m 18,8 km/h (3 Bft)
22.03.2015 14:20 6,1 C 7,8 C 74 % 1024,0 hPa 0,0 l/m 2 min 0 min 294 W/m 18,8 km/h (3 Bft)
22.03.2015 14:22 6,2 C 10,0 C 75 % 1024,0 hPa 0,0 l/m 2 min 0 min 565 W/m 14,6 km/h (3 Bft)
22.03.2015 14:24 6,3 C 11,1 C 75 % 1024,0 hPa 0,0 l/m 2 min 0 min 632 W/m 25,1 km/h (4 Bft)
22.03.2015 14:26 6,4 C 10,0 C 76 % 1024,0 hPa 0,0 l/m 2 min 0 min 589 W/m 25,1 km/h (4 Bft)
22.03.2015 14:28 6,6 C 8,3 C 74 % 1024,0 hPa 0,0 l/m 2 min 0 min 286 W/m 14,6 km/h (3 Bft)
22.03.2015 14:30 6,6 C 7,2 C 74 % 1024,0 hPa 0,0 l/m 2 min 0 min 238 W/m 18,8 km/h (3 Bft)
22.03.2015 14:32 6,6 C 7,2 C 74 % 1024,0 hPa 0,0 l/m 2 min 0 min 253 W/m 29,3 km/h (5 Bft)
22.03.2015 14:34 6,6 C 7,2 C 72 % 1024,0 hPa 0,0 l/m 2 min 0 min 278 W/m 20,9 km/h (4 Bft)
22.03.2015 14:36 6,7 C 9,4 C 72 % 1024,0 hPa 0,0 l/m 2 min 0 min 316 W/m 10,5 km/h (2 Bft)
22.03.2015 14:38 6,7 C 11,7 C 73 % 1024,0 hPa 0,0 l/m 2 min 0 min 687 W/m 16,7 km/h (3 Bft)
22.03.2015 14:40 6,9 C 12,2 C 73 % 1023,9 hPa 0,0 l/m 2 min 0 min 645 W/m 14,6 km/h (3 Bft)
22.03.2015 14:42 7,0 C 11,7 C 73 % 1023,8 hPa 0,0 l/m 2 min 0 min 639 W/m 18,8 km/h (3 Bft)
22.03.2015 14:44 7,2 C 10,6 C 73 % 1023,7 hPa 0,0 l/m 2 min 0 min 532 W/m 10,5 km/h (2 Bft)
22.03.2015 14:46 7,3 C 9,4 C 73 % 1023,8 hPa 0,0 l/m 2 min 0 min 243 W/m 16,7 km/h (3 Bft)
22.03.2015 14:48 7,3 C 8,3 C 71 % 1023,8 hPa 0,0 l/m 2 min 0 min 297 W/m 18,8 km/h (3 Bft)
22.03.2015 14:50 7,3 C 8,3 C 71 % 1023,8 hPa 0,0 l/m 2 min 0 min 340 W/m 14,6 km/h (3 Bft)
22.03.2015 14:52 7,3 C 8,3 C 71 % 1023,7 hPa 0,0 l/m 2 min 0 min 392 W/m 16,7 km/h (3 Bft)
22.03.2015 14:54 7,3 C 8,3 C 71 % 1023,6 hPa 0,0 l/m 2 min 0 min 411 W/m 20,9 km/h (4 Bft)
22.03.2015 14:56 7,4 C 7,8 C 71 % 1023,6 hPa 0,0 l/m 2 min 0 min 564 W/m 18,8 km/h (3 Bft)
22.03.2015 14:58 7,5 C 8,3 C 72 % 1023,5 hPa 0,0 l/m 2 min 0 min 531 W/m 20,9 km/h (4 Bft)
22.03.2015 15:00 7,6 C 8,9 C 72 % 1023,5 hPa 0,0 l/m 2 min 0 min 538 W/m 16,7 km/h (3 Bft)
22.03.2015 15:02 7,8 C 8,9 C 71 % 1023,5 hPa 0,0 l/m 2 min 0 min 532 W/m 27,2 km/h (4 Bft)
22.03.2015 15:04 7,8 C 7,8 C 70 % 1023,5 hPa 0,0 l/m 2 min 0 min 396 W/m 18,8 km/h (3 Bft)
22.03.2015 15:06 7,8 C 7,8 C 69 % 1023,5 hPa 0,0 l/m 2 min 0 min 422 W/m 10,5 km/h (2 Bft)
22.03.2015 15:08 7,9 C 7,8 C 70 % 1023,4 hPa 0,0 l/m 2 min 0 min 435 W/m 18,8 km/h (3 Bft)
22.03.2015 15:10 7,9 C 7,8 C 70 % 1023,3 hPa 0,0 l/m 2 min 0 min 464 W/m 18,8 km/h (3 Bft)
22.03.2015 15:12 8,0 C 7,8 C 70 % 1023,2 hPa 0,0 l/m 2 min 0 min 462 W/m 14,6 km/h (3 Bft)
22.03.2015 15:14 8,1 C 7,8 C 70 % 1023,2 hPa 0,0 l/m 2 min 0 min 493 W/m 16,7 km/h (3 Bft)
22.03.2015 15:16 8,1 C 7,8 C 70 % 1023,3 hPa 0,0 l/m 2 min 0 min 435 W/m 18,8 km/h (3 Bft)
22.03.2015 15:18 8,1 C 7,2 C 70 % 1023,3 hPa 0,0 l/m 2 min 0 min 440 W/m 14,6 km/h (3 Bft)
22.03.2015 15:20 8,1 C 7,2 C 69 % 1023,2 hPa 0,0 l/m 2 min 0 min 429 W/m 20,9 km/h (4 Bft)
22.03.2015 15:22 8,1 C 6,7 C 69 % 1023,2 hPa 0,0 l/m 2 min 0 min 462 W/m 23,0 km/h (4 Bft)
22.03.2015 15:24 7,9 C 6,7 C 68 % 1023,2 hPa 0,0 l/m 2 min 0 min 456 W/m 23,0 km/h (4 Bft)
22.03.2015 15:26 7,8 C 6,7 C 69 % 1023,2 hPa 0,0 l/m 2 min 0 min 474 W/m 18,8 km/h (3 Bft)
22.03.2015 15:28 7,9 C 7,2 C 70 % 1023,2 hPa 0,0 l/m 2 min 0 min 479 W/m 14,6 km/h (3 Bft)
22.03.2015 15:30 7,9 C 8,3 C 71 % 1023,2 hPa 0,0 l/m 2 min 0 min 488 W/m 14,6 km/h (3 Bft)
22.03.2015 15:32 8,1 C 7,8 C 71 % 1023,1 hPa 0,0 l/m 2 min 0 min 497 W/m 16,7 km/h (3 Bft)
22.03.2015 15:34 8,1 C 7,8 C 70 % 1023,1 hPa 0,0 l/m 2 min 0 min 499 W/m 18,8 km/h (3 Bft)
22.03.2015 15:36 8,2 C 7,8 C 70 % 1023,1 hPa 0,0 l/m 2 min 0 min 492 W/m 18,8 km/h (3 Bft)
22.03.2015 15:38 8,2 C 7,2 C 69 % 1023,1 hPa 0,0 l/m 2 min 0 min 206 W/m 20,9 km/h (4 Bft)
22.03.2015 15:40 8,2 C 7,2 C 68 % 1023,0 hPa 0,0 l/m 2 min 0 min 283 W/m 20,9 km/h (4 Bft)
22.03.2015 15:42 8,2 C 7,2 C 69 % 1023,0 hPa 0,0 l/m 2 min 0 min 352 W/m 18,8 km/h (3 Bft)
22.03.2015 15:44 8,2 C 7,2 C 69 % 1022,9 hPa 0,0 l/m 2 min 0 min 235 W/m 18,8 km/h (3 Bft)
22.03.2015 15:46 8,2 C 7,2 C 69 % 1022,9 hPa 0,0 l/m 2 min 0 min 430 W/m 23,0 km/h (4 Bft)
22.03.2015 15:48 8,3 C 7,2 C 69 % 1022,8 hPa 0,0 l/m 2 min 0 min 426 W/m 16,7 km/h (3 Bft)
22.03.2015 15:50 8,3 C 7,2 C 68 % 1022,8 hPa 0,0 l/m 2 min 0 min 424 W/m 20,9 km/h (4 Bft)
22.03.2015 15:52 8,3 C 7,2 C 69 % 1022,8 hPa 0,0 l/m 2 min 0 min 418 W/m 23,0 km/h (4 Bft)
22.03.2015 15:54 8,3 C 6,7 C 68 % 1023,0 hPa 0,0 l/m 2 min 0 min 411 W/m 20,9 km/h (4 Bft)
22.03.2015 15:56 8,2 C 6,7 C 67 % 1023,1 hPa 0,0 l/m 2 min 0 min 407 W/m 23,0 km/h (4 Bft)
22.03.2015 15:58 8,1 C 6,7 C 68 % 1022,9 hPa 0,0 l/m 2 min 0 min 398 W/m 16,7 km/h (3 Bft)
22.03.2015 16:00 8,1 C 6,7 C 68 % 1022,9 hPa 0,0 l/m 2 min 0 min 383 W/m 18,8 km/h (3 Bft)
22.03.2015 16:02 8,2 C 6,7 C 69 % 1022,9 hPa 0,0 l/m 2 min 0 min 383 W/m 23,0 km/h (4 Bft)
22.03.2015 16:04 8,2 C 6,7 C 68 % 1023,0 hPa 0,0 l/m 2 min 0 min 386 W/m 18,8 km/h (3 Bft)
22.03.2015 16:06 8,3 C 6,7 C 68 % 1022,9 hPa 0,0 l/m 2 min 0 min 384 W/m 20,9 km/h (4 Bft)
22.03.2015 16:08 8,3 C 6,7 C 68 % 1022,9 hPa 0,0 l/m 2 min 0 min 378 W/m 18,8 km/h (3 Bft)
22.03.2015 16:10 8,3 C 6,7 C 68 % 1022,9 hPa 0,0 l/m 2 min 0 min 373 W/m 14,6 km/h (3 Bft)
22.03.2015 16:12 8,2 C 6,7 C 68 % 1022,8 hPa 0,0 l/m 2 min 0 min 361 W/m 20,9 km/h (4 Bft)
22.03.2015 16:14 8,2 C 6,7 C 68 % 1022,8 hPa 0,0 l/m 2 min 0 min 350 W/m 23,0 km/h (4 Bft)
22.03.2015 16:16 8,2 C 6,7 C 68 % 1022,9 hPa 0,0 l/m 2 min 0 min 344 W/m 16,7 km/h (3 Bft)
22.03.2015 16:18 8,2 C 6,7 C 68 % 1022,9 hPa 0,0 l/m 2 min 0 min 342 W/m 20,9 km/h (4 Bft)
22.03.2015 16:20 8,2 C 6,7 C 68 % 1022,9 hPa 0,0 l/m 2 min 0 min 331 W/m 18,8 km/h (3 Bft)
22.03.2015 16:22 8,2 C 6,7 C 68 % 1022,8 hPa 0,0 l/m 2 min 0 min 331 W/m 23,0 km/h (4 Bft)
22.03.2015 16:24 8,2 C 7,2 C 69 % 1022,7 hPa 0,0 l/m 2 min 0 min 329 W/m 25,1 km/h (4 Bft)
22.03.2015 16:26 8,2 C 7,2 C 68 % 1022,7 hPa 0,0 l/m 2 min 0 min 327 W/m 18,8 km/h (3 Bft)
22.03.2015 16:28 8,2 C 7,2 C 68 % 1022,7 hPa 0,0 l/m 2 min 0 min 312 W/m 16,7 km/h (3 Bft)
22.03.2015 16:30 8,2 C 7,2 C 68 % 1022,8 hPa 0,0 l/m 2 min 0 min 313 W/m 12,6 km/h (3 Bft)
22.03.2015 16:32 8,3 C 7,2 C 69 % 1022,8 hPa 0,0 l/m 2 min 0 min 302 W/m 16,7 km/h (3 Bft)
22.03.2015 16:34 8,3 C 6,7 C 69 % 1022,7 hPa 0,0 l/m 2 min 0 min 296 W/m 18,8 km/h (3 Bft)
22.03.2015 16:36 8,4 C 6,7 C 69 % 1022,7 hPa 0,0 l/m 2 min 0 min 289 W/m 18,8 km/h (3 Bft)
22.03.2015 16:38 8,3 C 6,7 C 67 % 1022,6 hPa 0,0 l/m 2 min 0 min 283 W/m 18,8 km/h (3 Bft)
22.03.2015 16:40 8,3 C 6,7 C 67 % 1022,6 hPa 0,0 l/m 2 min 0 min 280 W/m 18,8 km/h (3 Bft)
22.03.2015 16:42 8,3 C 6,7 C 68 % 1022,6 hPa 0,0 l/m 2 min 0 min 277 W/m 14,6 km/h (3 Bft)
22.03.2015 16:44 8,3 C 6,7 C 69 % 1022,5 hPa 0,0 l/m 2 min 0 min 269 W/m 18,8 km/h (3 Bft)
22.03.2015 16:46 8,3 C 6,7 C 69 % 1022,5 hPa 0,0 l/m 2 min 0 min 260 W/m 14,6 km/h (3 Bft)
22.03.2015 16:48 8,4 C 6,7 C 68 % 1022,5 hPa 0,0 l/m 2 min 0 min 252 W/m 18,8 km/h (3 Bft)
22.03.2015 16:50 8,4 C 6,7 C 69 % 1022,5 hPa 0,0 l/m 2 min 0 min 249 W/m 14,6 km/h (3 Bft)
22.03.2015 16:52 8,4 C 6,7 C 68 % 1022,5 hPa 0,0 l/m 2 min 0 min 242 W/m 16,7 km/h (3 Bft)
22.03.2015 16:54 8,5 C 6,7 C 67 % 1022,5 hPa 0,0 l/m 2 min 0 min 232 W/m 10,5 km/h (2 Bft)
22.03.2015 16:56 8,4 C 6,7 C 67 % 1022,3 hPa 0,0 l/m 2 min 0 min 226 W/m 12,6 km/h (3 Bft)
22.03.2015 16:58 8,4 C 6,1 C 66 % 1022,4 hPa 0,0 l/m 2 min 0 min 216 W/m 20,9 km/h (4 Bft)
22.03.2015 17:00 8,4 C 6,1 C 67 % 1022,4 hPa 0,0 l/m 2 min 0 min 210 W/m 18,8 km/h (3 Bft)
22.03.2015 17:02 8,4 C 6,1 C 68 % 1022,4 hPa 0,0 l/m 2 min 0 min 202 W/m 8,4 km/h (2 Bft)
22.03.2015 17:04 8,4 C 6,1 C 68 % 1022,3 hPa 0,0 l/m 2 min 0 min 195 W/m 12,6 km/h (3 Bft)
22.03.2015 17:06 8,4 C 6,1 C 68 % 1022,3 hPa 0,0 l/m 2 min 0 min 187 W/m 16,7 km/h (3 Bft)
22.03.2015 17:08 8,4 C 6,1 C 68 % 1022,3 hPa 0,0 l/m 2 min 0 min 182 W/m 16,7 km/h (3 Bft)
22.03.2015 17:10 8,4 C 6,1 C 68 % 1022,3 hPa 0,0 l/m 2 min 0 min 185 W/m 14,6 km/h (3 Bft)
22.03.2015 17:12 8,4 C 6,1 C 68 % 1022,2 hPa 0,0 l/m 2 min 0 min 180 W/m 10,5 km/h (2 Bft)
22.03.2015 17:14 8,5 C 6,1 C 68 % 1022,1 hPa 0,0 l/m 2 min 0 min 175 W/m 12,6 km/h (3 Bft)
22.03.2015 17:16 8,5 C 6,1 C 68 % 1022,1 hPa 0,0 l/m 2 min 0 min 167 W/m 18,8 km/h (3 Bft)
22.03.2015 17:18 8,5 C 6,1 C 67 % 1022,0 hPa 0,0 l/m 2 min 0 min 156 W/m 14,6 km/h (3 Bft)
22.03.2015 17:20 8,5 C 6,1 C 67 % 1022,1 hPa 0,0 l/m 2 min 0 min 150 W/m 18,8 km/h (3 Bft)
22.03.2015 17:22 8,5 C 6,1 C 67 % 1022,1 hPa 0,0 l/m 2 min 0 min 146 W/m 18,8 km/h (3 Bft)
22.03.2015 17:24 8,5 C 6,1 C 67 % 1022,1 hPa 0,0 l/m 2 min 0 min 140 W/m 16,7 km/h (3 Bft)
22.03.2015 17:26 8,4 C 6,1 C 67 % 1022,0 hPa 0,0 l/m 2 min 0 min 134 W/m 18,8 km/h (3 Bft)
22.03.2015 17:28 8,4 C 5,6 C 67 % 1021,9 hPa 0,0 l/m 2 min 0 min 128 W/m 14,6 km/h (3 Bft)
22.03.2015 17:30 8,3 C 5,6 C 67 % 1022,0 hPa 0,0 l/m 2 min 0 min 123 W/m 20,9 km/h (4 Bft)
22.03.2015 17:32 8,3 C 5,6 C 67 % 1022,0 hPa 0,0 l/m 2 min 0 min 117 W/m 18,8 km/h (3 Bft)
22.03.2015 17:34 8,3 C 5,6 C 68 % 1022,0 hPa 0,0 l/m 2 min 0 min 111 W/m 14,6 km/h (3 Bft)
22.03.2015 17:36 8,2 C 5,6 C 68 % 1022,0 hPa 0,0 l/m 2 min 0 min 104 W/m 18,8 km/h (3 Bft)
22.03.2015 17:38 8,2 C 5,6 C 68 % 1022,0 hPa 0,0 l/m 2 min 0 min 99 W/m 18,8 km/h (3 Bft)
22.03.2015 17:40 8,2 C 5,6 C 68 % 1022,0 hPa 0,0 l/m 2 min 0 min 95 W/m 14,6 km/h (3 Bft)
22.03.2015 17:42 8,2 C 5,6 C 68 % 1022,0 hPa 0,0 l/m 2 min 0 min 90 W/m 14,6 km/h (3 Bft)
22.03.2015 17:44 8,2 C 5,6 C 68 % 1022,0 hPa 0,0 l/m 2 min 0 min 85 W/m 12,6 km/h (3 Bft)
22.03.2015 17:46 8,1 C 5,6 C 68 % 1022,1 hPa 0,0 l/m 2 min 0 min 81 W/m 10,5 km/h (2 Bft)
22.03.2015 17:48 8,1 C 5,6 C 68 % 1022,1 hPa 0,0 l/m 2 min 0 min 76 W/m 10,5 km/h (2 Bft)
22.03.2015 17:50 8,1 C 5,6 C 68 % 1022,2 hPa 0,0 l/m 2 min 0 min 71 W/m 8,4 km/h (2 Bft)
22.03.2015 17:52 8,1 C 5,6 C 68 % 1022,1 hPa 0,0 l/m 2 min 0 min 67 W/m 12,6 km/h (3 Bft)
22.03.2015 17:54 8,0 C 5,6 C 68 % 1022,0 hPa 0,0 l/m 2 min 0 min 62 W/m 14,6 km/h (3 Bft)
22.03.2015 17:56 7,9 C 5,6 C 68 % 1022,1 hPa 0,0 l/m 2 min 0 min 58 W/m 10,5 km/h (2 Bft)
22.03.2015 17:58 7,9 C 5,6 C 69 % 1022,2 hPa 0,0 l/m 2 min 0 min 54 W/m 12,6 km/h (3 Bft)
22.03.2015 18:00 7,8 C 5,6 C 69 % 1022,0 hPa 0,0 l/m 2 min 0 min 48 W/m 14,6 km/h (3 Bft)
22.03.2015 18:02 7,7 C 5,6 C 69 % 1021,9 hPa 0,0 l/m 2 min 0 min 44 W/m 18,8 km/h (3 Bft)
22.03.2015 18:06 7,6 C 5,6 C 69 % 1021,9 hPa 0,0 l/m 2 min 0 min 38 W/m 14,6 km/h (3 Bft)
22.03.2015 18:08 7,5 C 5,0 C 69 % 1021,9 hPa 0,0 l/m 2 min 0 min 34 W/m 8,4 km/h (2 Bft)
22.03.2015 18:10 7,4 C 5,0 C 70 % 1022,0 hPa 0,0 l/m 2 min 0 min 32 W/m 10,5 km/h (2 Bft)
22.03.2015 18:12 7,4 C 5,0 C 70 % 1022,0 hPa 0,0 l/m 2 min 0 min 30 W/m 8,4 km/h (2 Bft)
22.03.2015 18:14 7,4 C 5,0 C 70 % 1021,9 hPa 0,0 l/m 2 min 0 min 29 W/m 14,6 km/h (3 Bft)
22.03.2015 18:16 7,4 C 5,0 C 71 % 1021,9 hPa 0,0 l/m 2 min 0 min 26 W/m 14,6 km/h (3 Bft)
22.03.2015 18:18 7,3 C 5,0 C 71 % 1021,9 hPa 0,0 l/m 2 min 0 min 26 W/m 8,4 km/h (2 Bft)
22.03.2015 18:20 7,3 C 5,0 C 71 % 1022,0 hPa 0,0 l/m 2 min 0 min 25 W/m 10,5 km/h (2 Bft)
22.03.2015 18:22 7,2 C 5,0 C 71 % 1022,0 hPa 0,0 l/m 2 min 0 min 25 W/m 12,6 km/h (3 Bft)
22.03.2015 18:24 7,2 C 4,4 C 71 % 1022,0 hPa 0,0 l/m 2 min 0 min 23 W/m 8,4 km/h (2 Bft)
22.03.2015 18:26 7,2 C 4,4 C 71 % 1022,0 hPa 0,0 l/m 2 min 0 min 21 W/m 6,3 km/h (2 Bft)
22.03.2015 18:28 7,1 C 4,4 C 71 % 1021,9 hPa 0,0 l/m 2 min 0 min 20 W/m 6,3 km/h (2 Bft)
22.03.2015 18:30 7,1 C 4,4 C 71 % 1021,8 hPa 0,0 l/m 2 min 0 min 19 W/m 6,3 km/h (2 Bft)
22.03.2015 18:32 7,1 C 3,9 C 72 % 1021,8 hPa 0,0 l/m 2 min 0 min 18 W/m 8,4 km/h (2 Bft)
22.03.2015 18:34 7,0 C 3,9 C 72 % 1021,9 hPa 0,0 l/m 2 min 0 min 17 W/m 12,6 km/h (3 Bft)
22.03.2015 18:36 6,9 C 3,9 C 72 % 1021,9 hPa 0,0 l/m 2 min 0 min 16 W/m 14,6 km/h (3 Bft)
22.03.2015 18:38 6,8 C 3,9 C 72 % 1021,9 hPa 0,0 l/m 2 min 0 min 14 W/m 10,5 km/h (2 Bft)
22.03.2015 18:40 6,8 C 3,9 C 72 % 1022,0 hPa 0,0 l/m 0 min 0 min 12 W/m 8,4 km/h (2 Bft)
22.03.2015 18:42 6,7 C 3,9 C 72 % 1021,9 hPa 0,0 l/m 0 min 0 min 11 W/m 12,6 km/h (3 Bft)
22.03.2015 18:44 6,6 C 4,4 C 72 % 1021,9 hPa 0,0 l/m 0 min 0 min 10 W/m 10,5 km/h (2 Bft)
22.03.2015 18:46 6,6 C 3,9 C 73 % 1021,9 hPa 0,0 l/m 0 min 0 min 8 W/m 12,6 km/h (3 Bft)
22.03.2015 18:48 6,5 C 3,9 C 73 % 1021,9 hPa 0,0 l/m 0 min 0 min 7 W/m 10,5 km/h (2 Bft)
22.03.2015 18:50 6,4 C 3,9 C 73 % 1021,9 hPa 0,0 l/m 0 min 0 min 6 W/m 8,4 km/h (2 Bft)
22.03.2015 18:52 6,4 C 3,9 C 74 % 1022,0 hPa 0,0 l/m 0 min 0 min 5 W/m 8,4 km/h (2 Bft)
22.03.2015 18:54 6,3 C 3,9 C 74 % 1021,9 hPa 0,0 l/m 0 min 0 min 4 W/m 8,4 km/h (2 Bft)
22.03.2015 18:56 6,2 C 3,9 C 74 % 1022,0 hPa 0,0 l/m 0 min 0 min 0 W/m 8,4 km/h (2 Bft)
22.03.2015 18:58 6,2 C 3,9 C 75 % 1022,1 hPa 0,0 l/m 0 min 0 min 0 W/m 8,4 km/h (2 Bft)
22.03.2015 19:00 6,1 C 3,9 C 75 % 1022,0 hPa 0,0 l/m 0 min 0 min 0 W/m 6,3 km/h (2 Bft)
22.03.2015 19:02 6,1 C 3,3 C 75 % 1022,0 hPa 0,0 l/m 0 min 0 min 0 W/m 8,4 km/h (2 Bft)
22.03.2015 19:04 6,0 C 3,3 C 75 % 1022,0 hPa 0,0 l/m 0 min 0 min 0 W/m 6,3 km/h (2 Bft)
22.03.2015 19:06 5,9 C 3,3 C 75 % 1022,1 hPa 0,0 l/m 0 min 0 min 0 W/m 6,3 km/h (2 Bft)
22.03.2015 19:08 5,9 C 3,3 C 76 % 1022,0 hPa 0,0 l/m 0 min 0 min 0 W/m 4,2 km/h (1 Bft)
22.03.2015 19:10 5,8 C 2,8 C 76 % 1022,0 hPa 0,0 l/m 0 min 0 min 0 W/m 6,3 km/h (2 Bft)
22.03.2015 19:12 5,8 C 2,8 C 76 % 1022,0 hPa 0,0 l/m 0 min 0 min 0 W/m 6,3 km/h (2 Bft)
22.03.2015 19:14 5,8 C 2,8 C 76 % 1022,0 hPa 0,0 l/m 0 min 0 min 0 W/m 6,3 km/h (2 Bft)
22.03.2015 19:16 5,7 C 2,8 C 76 % 1022,0 hPa 0,0 l/m 0 min 0 min 0 W/m 6,3 km/h (2 Bft)
22.03.2015 19:18 5,7 C 2,2 C 76 % 1022,0 hPa 0,0 l/m 0 min 0 min 0 W/m 6,3 km/h (2 Bft)
22.03.2015 19:20 5,6 C 2,2 C 76 % 1022,1 hPa 0,0 l/m 0 min 0 min 0 W/m 6,3 km/h (2 Bft)
22.03.2015 19:22 5,6 C 2,8 C 76 % 1022,1 hPa 0,0 l/m 0 min 0 min 0 W/m 6,3 km/h (2 Bft)
22.03.2015 19:24 5,4 C 2,8 C 76 % 1022,1 hPa 0,0 l/m 0 min 0 min 0 W/m 6,3 km/h (2 Bft)
22.03.2015 19:26 5,4 C 2,8 C 77 % 1022,1 hPa 0,0 l/m 0 min 0 min 0 W/m 6,3 km/h (2 Bft)
22.03.2015 19:28 5,3 C 2,8 C 77 % 1022,1 hPa 0,0 l/m 0 min 0 min 0 W/m 4,2 km/h (1 Bft)
22.03.2015 19:30 5,3 C 2,2 C 77 % 1022,1 hPa 0,0 l/m 0 min 0 min 0 W/m 4,2 km/h (1 Bft)
22.03.2015 19:32 5,3 C 2,2 C 77 % 1022,0 hPa 0,0 l/m 0 min 0 min 0 W/m 6,3 km/h (2 Bft)
22.03.2015 19:34 5,2 C 2,2 C 77 % 1022,0 hPa 0,0 l/m 0 min 0 min 0 W/m 6,3 km/h (2 Bft)
22.03.2015 19:36 5,2 C 2,2 C 77 % 1022,1 hPa 0,0 l/m 0 min 0 min 0 W/m 4,2 km/h (1 Bft)
22.03.2015 19:38 5,2 C 1,7 C 77 % 1022,1 hPa 0,0 l/m 0 min 0 min 0 W/m 4,2 km/h (1 Bft)
22.03.2015 19:40 5,1 C 1,7 C 77 % 1022,0 hPa 0,0 l/m 0 min 0 min 0 W/m 6,3 km/h (2 Bft)
22.03.2015 19:42 5,0 C 1,7 C 77 % 1021,9 hPa 0,0 l/m 0 min 0 min 0 W/m 6,3 km/h (2 Bft)
22.03.2015 19:44 4,9 C 1,7 C 77 % 1022,0 hPa 0,0 l/m 0 min 0 min 0 W/m 6,3 km/h (2 Bft)
22.03.2015 19:46 4,9 C 1,7 C 78 % 1022,1 hPa 0,0 l/m 0 min 0 min 0 W/m 4,2 km/h (1 Bft)
22.03.2015 19:48 4,8 C 1,1 C 78 % 1022,1 hPa 0,0 l/m 0 min 0 min 0 W/m 4,2 km/h (1 Bft)
22.03.2015 19:50 4,8 C 1,1 C 78 % 1022,0 hPa 0,0 l/m 0 min 0 min 0 W/m 6,3 km/h (2 Bft)
22.03.2015 19:52 4,7 C 1,1 C 78 % 1022,2 hPa 0,0 l/m 0 min 0 min 0 W/m 4,2 km/h (1 Bft)
22.03.2015 19:54 4,7 C 1,1 C 78 % 1022,2 hPa 0,0 l/m 0 min 0 min 0 W/m 4,2 km/h (1 Bft)
22.03.2015 19:56 4,7 C 1,1 C 78 % 1022,1 hPa 0,0 l/m 0 min 0 min 0 W/m 4,2 km/h (1 Bft)
22.03.2015 19:58 4,6 C 1,1 C 78 % 1022,1 hPa 0,0 l/m 0 min 0 min 0 W/m 6,3 km/h (2 Bft)
22.03.2015 20:00 4,5 C 1,1 C 78 % 1022,1 hPa 0,0 l/m 0 min 0 min 0 W/m 6,3 km/h (2 Bft)
22.03.2015 20:02 4,4 C 1,1 C 78 % 1022,2 hPa 0,0 l/m 0 min 0 min 0 W/m 6,3 km/h (2 Bft)
22.03.2015 20:04 4,4 C 1,1 C 78 % 1022,2 hPa 0,0 l/m 0 min 0 min 0 W/m 6,3 km/h (2 Bft)
22.03.2015 20:06 4,3 C 1,1 C 79 % 1022,2 hPa 0,0 l/m 0 min 0 min 0 W/m 6,3 km/h (2 Bft)
22.03.2015 20:08 4,2 C 1,1 C 79 % 1022,1 hPa 0,0 l/m 0 min 0 min 0 W/m 6,3 km/h (2 Bft)
22.03.2015 20:10 4,2 C 1,1 C 79 % 1022,1 hPa 0,0 l/m 0 min 0 min 0 W/m 6,3 km/h (2 Bft)
22.03.2015 20:12 4,2 C 1,1 C 79 % 1022,1 hPa 0,0 l/m 0 min 0 min 0 W/m 6,3 km/h (2 Bft)
22.03.2015 20:14 4,1 C 1,1 C 80 % 1022,2 hPa 0,0 l/m 0 min 0 min 0 W/m 4,2 km/h (1 Bft)
22.03.2015 20:16 4,1 C 1,1 C 80 % 1022,3 hPa 0,0 l/m 0 min 0 min 0 W/m 4,2 km/h (1 Bft)
22.03.2015 20:18 4,1 C 1,1 C 80 % 1022,2 hPa 0,0 l/m 0 min 0 min 0 W/m 4,2 km/h (1 Bft)
22.03.2015 20:20 4,0 C 0,6 C 80 % 1022,2 hPa 0,0 l/m 0 min 0 min 0 W/m 6,3 km/h (2 Bft)
22.03.2015 20:22 3,9 C 0,6 C 80 % 1022,2 hPa 0,0 l/m 0 min 0 min 0 W/m 6,3 km/h (2 Bft)
22.03.2015 20:24 3,9 C 0,6 C 80 % 1022,2 hPa 0,0 l/m 0 min 0 min 0 W/m 4,2 km/h (1 Bft)
22.03.2015 20:26 3,8 C 0,6 C 80 % 1022,2 hPa 0,0 l/m 0 min 0 min 0 W/m 6,3 km/h (2 Bft)
22.03.2015 20:28 3,8 C 0,6 C 80 % 1022,2 hPa 0,0 l/m 0 min 0 min 0 W/m 6,3 km/h (2 Bft)
22.03.2015 20:30 3,7 C 0,6 C 81 % 1022,2 hPa 0,0 l/m 0 min 0 min 0 W/m 6,3 km/h (2 Bft)
22.03.2015 20:32 3,7 C 0,6 C 81 % 1022,2 hPa 0,0 l/m 0 min 0 min 0 W/m 6,3 km/h (2 Bft)
22.03.2015 20:34 3,7 C 0,6 C 81 % 1022,2 hPa 0,0 l/m 0 min 0 min 0 W/m 6,3 km/h (2 Bft)
22.03.2015 20:36 3,6 C 0,6 C 81 % 1022,2 hPa 0,0 l/m 0 min 0 min 0 W/m 6,3 km/h (2 Bft)
22.03.2015 20:38 3,6 C 0,6 C 81 % 1022,2 hPa 0,0 l/m 0 min 0 min 0 W/m 4,2 km/h (1 Bft)
22.03.2015 20:40 3,5 C 0,6 C 81 % 1022,2 hPa 0,0 l/m 0 min 0 min 0 W/m 6,3 km/h (2 Bft)
22.03.2015 20:42 3,5 C 0,6 C 81 % 1022,1 hPa 0,0 l/m 0 min 0 min 0 W/m 4,2 km/h (1 Bft)
22.03.2015 20:44 3,4 C 0,6 C 81 % 1022,1 hPa 0,0 l/m 0 min 0 min 0 W/m 2,1 km/h (1 Bft)
22.03.2015 20:46 3,4 C 0,6 C 81 % 1022,2 hPa 0,0 l/m 0 min 0 min 0 W/m 4,2 km/h (1 Bft)
22.03.2015 20:48 3,4 C 0,6 C 82 % 1022,1 hPa 0,0 l/m 0 min 0 min 0 W/m 4,2 km/h (1 Bft)
22.03.2015 20:50 3,3 C 0,6 C 82 % 1022,1 hPa 0,0 l/m 0 min 0 min 0 W/m 4,2 km/h (1 Bft)
22.03.2015 20:52 3,3 C 0,6 C 82 % 1022,1 hPa 0,0 l/m 0 min 0 min 0 W/m 6,3 km/h (2 Bft)
22.03.2015 20:54 3,2 C 0,6 C 82 % 1022,2 hPa 0,0 l/m 0 min 0 min 0 W/m 8,4 km/h (2 Bft)
22.03.2015 20:56 3,2 C 0,0 C 82 % 1022,2 hPa 0,0 l/m 0 min 0 min 0 W/m 6,3 km/h (2 Bft)
22.03.2015 20:58 3,2 C 0,0 C 82 % 1022,2 hPa 0,0 l/m 0 min 0 min 0 W/m 4,2 km/h (1 Bft)
22.03.2015 21:00 3,1 C 0,0 C 82 % 1022,1 hPa 0,0 l/m 0 min 0 min 0 W/m 6,3 km/h (2 Bft)
22.03.2015 21:02 3,1 C 0,0 C 82 % 1022,2 hPa 0,0 l/m 0 min 0 min 0 W/m 6,3 km/h (2 Bft)
22.03.2015 21:04 3,1 C 0,0 C 82 % 1022,2 hPa 0,0 l/m 0 min 0 min 0 W/m 4,2 km/h (1 Bft)
22.03.2015 21:06 3,0 C 0,0 C 82 % 1022,2 hPa 0,0 l/m 0 min 0 min 0 W/m 2,1 km/h (1 Bft)
22.03.2015 21:08 2,9 C 0,0 C 82 % 1022,2 hPa 0,0 l/m 0 min 0 min 0 W/m 6,3 km/h (2 Bft)
22.03.2015 21:10 2,9 C 0,0 C 82 % 1022,1 hPa 0,0 l/m 0 min 0 min 0 W/m 4,2 km/h (1 Bft)
22.03.2015 21:12 2,9 C 0,0 C 82 % 1022,2 hPa 0,0 l/m 0 min 0 min 0 W/m 4,2 km/h (1 Bft)
22.03.2015 21:14 2,9 C 0,0 C 82 % 1022,2 hPa 0,0 l/m 0 min 0 min 0 W/m 2,1 km/h (1 Bft)
22.03.2015 21:16 2,8 C 0,0 C 83 % 1022,1 hPa 0,0 l/m 0 min 0 min 0 W/m 6,3 km/h (2 Bft)
22.03.2015 21:18 2,8 C 0,0 C 83 % 1022,1 hPa 0,0 l/m 0 min 0 min 0 W/m 4,2 km/h (1 Bft)
22.03.2015 21:20 2,8 C 0,0 C 83 % 1022,2 hPa 0,0 l/m 0 min 0 min 0 W/m 4,2 km/h (1 Bft)
22.03.2015 21:22 2,7 C 0,0 C 83 % 1022,2 hPa 0,0 l/m 0 min 0 min 0 W/m 6,3 km/h (2 Bft)
22.03.2015 21:24 2,7 C 0,0 C 83 % 1022,2 hPa 0,0 l/m 0 min 0 min 0 W/m 6,3 km/h (2 Bft)
22.03.2015 21:26 2,7 C 0,0 C 83 % 1022,1 hPa 0,0 l/m 0 min 0 min 0 W/m 6,3 km/h (2 Bft)
22.03.2015 21:28 2,7 C 0,0 C 83 % 1022,2 hPa 0,0 l/m 0 min 0 min 0 W/m 6,3 km/h (2 Bft)
22.03.2015 21:30 2,6 C 0,0 C 83 % 1022,2 hPa 0,0 l/m 0 min 0 min 0 W/m 4,2 km/h (1 Bft)
22.03.2015 21:32 2,6 C 0,0 C 83 % 1022,1 hPa 0,0 l/m 0 min 0 min 0 W/m 4,2 km/h (1 Bft)
22.03.2015 21:34 2,6 C 0,0 C 83 % 1022,1 hPa 0,0 l/m 0 min 0 min 0 W/m 6,3 km/h (2 Bft)
22.03.2015 21:36 2,5 C 0,0 C 84 % 1022,0 hPa 0,0 l/m 0 min 0 min 0 W/m 4,2 km/h (1 Bft)
22.03.2015 21:38 2,5 C 0,0 C 84 % 1022,1 hPa 0,0 l/m 0 min 0 min 0 W/m 4,2 km/h (1 Bft)
22.03.2015 21:40 2,5 C 0,0 C 84 % 1022,1 hPa 0,0 l/m 0 min 0 min 0 W/m 4,2 km/h (1 Bft)
22.03.2015 21:42 2,4 C 0,0 C 84 % 1022,0 hPa 0,0 l/m 0 min 0 min 0 W/m 4,2 km/h (1 Bft)
22.03.2015 21:44 2,4 C 0,0 C 84 % 1022,0 hPa 0,0 l/m 0 min 0 min 0 W/m 4,2 km/h (1 Bft)
22.03.2015 21:46 2,4 C 0,0 C 84 % 1021,9 hPa 0,0 l/m 0 min 0 min 0 W/m 2,1 km/h (1 Bft)
22.03.2015 21:48 2,4 C -0,6 C 84 % 1022,1 hPa 0,0 l/m 0 min 0 min 0 W/m 2,1 km/h (1 Bft)
22.03.2015 21:50 2,3 C -0,6 C 84 % 1022,1 hPa 0,0 l/m 0 min 0 min 0 W/m 2,1 km/h (1 Bft)
22.03.2015 21:52 2,3 C -0,6 C 84 % 1022,1 hPa 0,0 l/m 0 min 0 min 0 W/m 2,1 km/h (1 Bft)
22.03.2015 21:54 2,3 C -0,6 C 84 % 1022,0 hPa 0,0 l/m 0 min 0 min 0 W/m 2,1 km/h (1 Bft)
22.03.2015 21:56 2,3 C -0,6 C 84 % 1021,9 hPa 0,0 l/m 0 min 0 min 0 W/m 2,1 km/h (1 Bft)
22.03.2015 21:58 2,2 C -0,6 C 84 % 1021,9 hPa 0,0 l/m 0 min 0 min 0 W/m 2,1 km/h (1 Bft)
22.03.2015 22:00 2,2 C -0,6 C 85 % 1022,0 hPa 0,0 l/m 0 min 0 min 0 W/m 0,0 km/h (0 Bft)
22.03.2015 22:02 2,2 C -0,6 C 85 % 1022,0 hPa 0,0 l/m 0 min 0 min 0 W/m 2,1 km/h (1 Bft)
22.03.2015 22:04 2,1 C -0,6 C 85 % 1022,0 hPa 0,0 l/m 0 min 0 min 0 W/m 2,1 km/h (1 Bft)
22.03.2015 22:06 2,1 C -0,6 C 84 % 1021,9 hPa 0,0 l/m 0 min 0 min 0 W/m 2,1 km/h (1 Bft)
22.03.2015 22:08 2,1 C -0,6 C 85 % 1021,8 hPa 0,0 l/m 0 min 0 min 0 W/m 2,1 km/h (1 Bft)
22.03.2015 22:10 2,1 C -0,6 C 85 % 1021,9 hPa 0,0 l/m 0 min 0 min 0 W/m 4,2 km/h (1 Bft)
22.03.2015 22:12 2,0 C -0,6 C 85 % 1021,9 hPa 0,0 l/m 0 min 0 min 0 W/m 2,1 km/h (1 Bft)
22.03.2015 22:14 2,0 C -0,6 C 85 % 1021,9 hPa 0,0 l/m 0 min 0 min 0 W/m 0,0 km/h (0 Bft)
22.03.2015 22:16 1,9 C -0,6 C 85 % 1021,9 hPa 0,0 l/m 0 min 0 min 0 W/m 0,0 km/h (0 Bft)
22.03.2015 22:18 1,9 C -0,6 C 85 % 1021,9 hPa 0,0 l/m 0 min 0 min 0 W/m 2,1 km/h (1 Bft)
22.03.2015 22:20 1,9 C -0,6 C 85 % 1021,8 hPa 0,0 l/m 0 min 0 min 0 W/m 2,1 km/h (1 Bft)
22.03.2015 22:22 1,8 C -0,6 C 85 % 1021,8 hPa 0,0 l/m 0 min 0 min 0 W/m 4,2 km/h (1 Bft)
22.03.2015 22:24 1,8 C -0,6 C 85 % 1021,7 hPa 0,0 l/m 0 min 0 min 0 W/m 4,2 km/h (1 Bft)
22.03.2015 22:26 1,8 C -0,6 C 85 % 1021,7 hPa 0,0 l/m 0 min 0 min 0 W/m 2,1 km/h (1 Bft)
22.03.2015 22:28 1,8 C -0,6 C 85 % 1021,8 hPa 0,0 l/m 0 min 0 min 0 W/m 2,1 km/h (1 Bft)
22.03.2015 22:30 1,7 C -0,6 C 85 % 1021,8 hPa 0,0 l/m 0 min 0 min 0 W/m 4,2 km/h (1 Bft)
22.03.2015 22:32 1,7 C -0,6 C 85 % 1021,8 hPa 0,0 l/m 0 min 0 min 0 W/m 2,1 km/h (1 Bft)
22.03.2015 22:34 1,7 C -0,6 C 86 % 1021,8 hPa 0,0 l/m 0 min 0 min 0 W/m 4,2 km/h (1 Bft)
22.03.2015 22:36 1,7 C -0,6 C 86 % 1021,7 hPa 0,0 l/m 0 min 0 min 0 W/m 2,1 km/h (1 Bft)
22.03.2015 22:38 1,6 C -0,6 C 86 % 1021,8 hPa 0,0 l/m 0 min 0 min 0 W/m 2,1 km/h (1 Bft)
22.03.2015 22:40 1,6 C -1,1 C 86 % 1021,8 hPa 0,0 l/m 0 min 0 min 0 W/m 0,0 km/h (0 Bft)
22.03.2015 22:42 1,6 C -1,1 C 86 % 1021,8 hPa 0,0 l/m 0 min 0 min 0 W/m 0,0 km/h (0 Bft)
22.03.2015 22:44 1,5 C -1,1 C 86 % 1021,9 hPa 0,0 l/m 0 min 0 min 0 W/m 2,1 km/h (1 Bft)
22.03.2015 22:46 1,5 C -1,1 C 86 % 1021,8 hPa 0,0 l/m 0 min 0 min 0 W/m 0,0 km/h (0 Bft)
22.03.2015 22:48 1,4 C -1,1 C 86 % 1021,8 hPa 0,0 l/m 0 min 0 min 0 W/m 2,1 km/h (1 Bft)
22.03.2015 22:50 1,4 C -1,1 C 86 % 1021,8 hPa 0,0 l/m 0 min 0 min 0 W/m 2,1 km/h (1 Bft)
22.03.2015 22:52 1,4 C -1,1 C 86 % 1021,8 hPa 0,0 l/m 0 min 0 min 0 W/m 2,1 km/h (1 Bft)
22.03.2015 22:54 1,4 C -1,1 C 86 % 1021,8 hPa 0,0 l/m 0 min 0 min 0 W/m 4,2 km/h (1 Bft)
22.03.2015 22:56 1,3 C -1,1 C 86 % 1021,8 hPa 0,0 l/m 0 min 0 min 0 W/m 4,2 km/h (1 Bft)
22.03.2015 22:58 1,3 C -1,1 C 86 % 1021,7 hPa 0,0 l/m 0 min 0 min 0 W/m 6,3 km/h (2 Bft)
22.03.2015 23:00 1,3 C -1,1 C 86 % 1021,8 hPa 0,0 l/m 0 min 0 min 0 W/m 4,2 km/h (1 Bft)
22.03.2015 23:02 1,3 C -1,1 C 86 % 1021,7 hPa 0,0 l/m 0 min 0 min 0 W/m 4,2 km/h (1 Bft)
22.03.2015 23:04 1,2 C -1,1 C 86 % 1021,7 hPa 0,0 l/m 0 min 0 min 0 W/m 2,1 km/h (1 Bft)
22.03.2015 23:06 1,2 C -1,1 C 86 % 1021,7 hPa 0,0 l/m 0 min 0 min 0 W/m 4,2 km/h (1 Bft)
22.03.2015 23:08 1,2 C -1,1 C 87 % 1021,6 hPa 0,0 l/m 0 min 0 min 0 W/m 4,2 km/h (1 Bft)
22.03.2015 23:10 1,2 C -1,1 C 87 % 1021,7 hPa 0,0 l/m 0 min 0 min 0 W/m 4,2 km/h (1 Bft)
22.03.2015 23:12 1,2 C -1,1 C 86 % 1021,6 hPa 0,0 l/m 0 min 0 min 0 W/m 4,2 km/h (1 Bft)
22.03.2015 23:14 1,1 C -1,1 C 87 % 1021,6 hPa 0,0 l/m 0 min 0 min 0 W/m 8,4 km/h (2 Bft)
22.03.2015 23:16 1,1 C -1,1 C 87 % 1021,7 hPa 0,0 l/m 0 min 0 min 0 W/m 8,4 km/h (2 Bft)
22.03.2015 23:18 1,0 C -1,1 C 87 % 1021,5 hPa 0,0 l/m 0 min 0 min 0 W/m 8,4 km/h (2 Bft)
22.03.2015 23:20 1,0 C -1,1 C 87 % 1021,6 hPa 0,0 l/m 0 min 0 min 0 W/m 8,4 km/h (2 Bft)
22.03.2015 23:22 1,0 C -1,1 C 87 % 1021,6 hPa 0,0 l/m 0 min 0 min 0 W/m 6,3 km/h (2 Bft)
22.03.2015 23:24 0,9 C -1,1 C 87 % 1021,7 hPa 0,0 l/m 0 min 0 min 0 W/m 8,4 km/h (2 Bft)
22.03.2015 23:26 0,9 C -1,1 C 87 % 1021,6 hPa 0,0 l/m 0 min 0 min 0 W/m 8,4 km/h (2 Bft)
22.03.2015 23:28 0,9 C -1,1 C 87 % 1021,5 hPa 0,0 l/m 0 min 0 min 0 W/m 10,5 km/h (2 Bft)
22.03.2015 23:30 0,9 C -1,1 C 87 % 1021,5 hPa 0,0 l/m 0 min 0 min 0 W/m 8,4 km/h (2 Bft)
22.03.2015 23:32 0,9 C -1,1 C 88 % 1021,5 hPa 0,0 l/m 0 min 0 min 0 W/m 4,2 km/h (1 Bft)
22.03.2015 23:34 0,9 C -1,1 C 88 % 1021,6 hPa 0,0 l/m 0 min 0 min 0 W/m 6,3 km/h (2 Bft)
22.03.2015 23:36 0,9 C -1,1 C 88 % 1021,5 hPa 0,0 l/m 0 min 0 min 0 W/m 6,3 km/h (2 Bft)
22.03.2015 23:38 0,9 C -1,1 C 88 % 1021,5 hPa 0,0 l/m 0 min 0 min 0 W/m 6,3 km/h (2 Bft)
22.03.2015 23:40 0,9 C -1,1 C 88 % 1021,5 hPa 0,0 l/m 0 min 0 min 0 W/m 6,3 km/h (2 Bft)
22.03.2015 23:42 0,9 C -0,6 C 89 % 1021,5 hPa 0,0 l/m 0 min 0 min 0 W/m 8,4 km/h (2 Bft)
22.03.2015 23:44 0,9 C -0,6 C 89 % 1021,5 hPa 0,0 l/m 0 min 0 min 0 W/m 8,4 km/h (2 Bft)
22.03.2015 23:46 1,0 C -0,6 C 89 % 1021,4 hPa 0,0 l/m 0 min 0 min 0 W/m 8,4 km/h (2 Bft)
22.03.2015 23:48 1,0 C -0,6 C 89 % 1021,4 hPa 0,0 l/m 0 min 0 min 0 W/m 8,4 km/h (2 Bft)
22.03.2015 23:50 1,0 C -0,6 C 89 % 1021,5 hPa 0,0 l/m 0 min 0 min 0 W/m 8,4 km/h (2 Bft)
22.03.2015 23:52 1,0 C -0,6 C 89 % 1021,4 hPa 0,0 l/m 0 min 0 min 0 W/m 6,3 km/h (2 Bft)
22.03.2015 23:54 1,1 C -0,6 C 90 % 1021,4 hPa 0,0 l/m 0 min 0 min 0 W/m 6,3 km/h (2 Bft)
22.03.2015 23:56 1,1 C -0,6 C 90 % 1021,3 hPa 0,0 l/m 0 min 0 min 0 W/m 8,4 km/h (2 Bft)
22.03.2015 23:58 1,1 C -0,6 C 90 % 1021,3 hPa 0,0 l/m 0 min 0 min 0 W/m 6,3 km/h (2 Bft)
_ Min-Zeit 23:24 22:40 16:58 23:56 - - - - 22:00
Minimum _ 0,9 C -1,1 C 66 % 1021,3 hPa - - - - 0,0 km/h (0 Bft)
_ Max-Zeit 16:54 14:40 00:00 11:12 00:00 10:10 00:00 12:58 03:46
Maximum _ 8,5 C 12,2 C 95 % 1026,1 hPa 0,0 l/m 2 min 0 min 810 W/m 41,8 km/h
O-NO (6 Bft)
Durchschnitt _ 4,7 C 3,5 C 83 % 1023,4 hPa #0,0 l/m #6:26 h #0 min. 204 W/m 18,2 km/h (3 Bft)
© 2015 W. Hausmann